M I D A S
Marine Information and Data Acquisition System
Tripno 1057 of the Zeeleeuw from 2006-03-28 06:42:22 to 2006-03-28 11:14:48
Back to CruiseResearch ActivitiesStationsMapUnderway DataData graphs

EquipmentUnitsComment
TimeDGPSUTC
LatitudeDGPSDM.mWGS84
LongitudeDGPSDM.mWGS84
TemperatureSBE03/SBE38deg celciusITS90
ConductivitySBE21S/mITS90
SalinitySBE21 Practical Salinity Units
ChlorophylAChelsea fluorimeterg/lCalibrated in Aceton
Missing or incorrect values are displayed as -999
Sea surface data collected by the RV Zeeleeuw from 2006-03-28 06:41:08 to 2006-03-28 11:26:33
                                                                                    Next 1000 lines
Time Latitude Longitude Temperature Conductivity Salinity ChlorophylA
2006-03-28 06:41:18 51°13.6 2°56.088 -999 0.094201 0.515352 40.310512
2006-03-28 06:41:23 51°13.601 2°56.085 -999 0.094201 0.515352 40.310512
2006-03-28 06:41:28 51°13.602 2°56.082 -999 0.094201 0.515343 40.310512
2006-03-28 06:41:33 51°13.603 2°56.078 -999 0.094201 0.515343 40.310512
2006-03-28 06:41:39 51°13.604 2°56.072 -999 0.094201 0.515343 40.310512
2006-03-28 06:41:43 51°13.605 2°56.068 -999 0.094201 0.515343 40.310512
2006-03-28 06:41:48 51°13.606 2°56.063 -999 0.094201 0.515343 40.310512
2006-03-28 06:41:53 51°13.607 2°56.058 -999 0.094201 0.515343 40.310512
2006-03-28 06:41:58 51°13.608 2°56.052 -999 0.094201 0.515343 40.310512
2006-03-28 06:42:03 51°13.609 2°56.047 -999 0.162525 0.912613 53.659435
2006-03-28 06:42:08 51°13.611 2°56.041 -999 0.426913 2.520223 42.838717
2006-03-28 06:42:13 51°13.612 2°56.035 -999 0.544263 3.259938 60.367606
2006-03-28 06:42:18 51°13.613 2°56.029 -999 2.196091 15.602806 55.715708
2006-03-28 06:42:23 51°13.614 2°56.023 -999 2.196091 15.602806 55.715708
2006-03-28 06:42:28 51°13.616 2°56.017 -999 2.643295 20.288979 37.242956
2006-03-28 06:42:33 51°13.617 2°56.01 -999 2.828449 23.147356 38.72617
2006-03-28 06:42:38 51°13.619 2°56.004 -999 3.052154 26.487462 40.748734
2006-03-28 06:42:43 51°13.62 2°55.998 -999 3.003655 26.940696 38.928426
2006-03-28 06:42:48 51°13.622 2°55.992 -999 2.934371 26.92019 37.58005
2006-03-28 06:42:53 51°13.624 2°55.986 -999 2.934371 26.92019 37.58005
2006-03-28 06:42:58 51°13.626 2°55.979 -999 2.915865 27.145393 37.0407
2006-03-28 06:43:03 51°13.628 2°55.973 -999 2.875954 27.04661 36.669896
2006-03-28 06:43:08 51°13.63 2°55.966 -999 2.845454 26.908634 36.43393
2006-03-28 06:43:13 51°13.632 2°55.959 -999 2.827879 26.894095 36.164255
2006-03-28 06:43:18 51°13.635 2°55.952 -999 2.799345 26.716944 35.793452
2006-03-28 06:43:23 51°13.637 2°55.945 -999 2.799345 26.716944 35.793452
2006-03-28 06:43:28 51°13.639 2°55.938 -999 2.809065 26.933003 35.523777
2006-03-28 06:43:33 51°13.641 2°55.93 -999 2.780635 26.715526 35.692324
2006-03-28 06:43:38 51°13.644 2°55.923 -999 2.804621 27.038729 37.00699
2006-03-28 06:43:43 51°13.646 2°55.916 -999 2.797281 27.021461 38.355366
2006-03-28 06:43:48 51°13.649 2°55.909 -999 2.79263 27.036489 39.231811
2006-03-28 06:43:53 51°13.652 2°55.902 -999 2.79263 27.036489 39.231811
2006-03-28 06:43:58 51°13.655 2°55.895 -999 2.794801 27.100905 39.501486
2006-03-28 06:44:03 51°13.657 2°55.887 -999 2.79108 27.0855 39.905999
2006-03-28 06:44:08 51°13.66 2°55.88 -999 2.78467 27.049447 39.771161
2006-03-28 06:44:13 51°13.663 2°55.873 -999 2.749108 26.673708 39.602614
2006-03-28 06:44:18 51°13.666 2°55.866 -999 2.76048 26.819361 39.29923
2006-03-28 06:44:23 51°13.669 2°55.859 -999 2.76048 26.819361 39.29923
2006-03-28 06:44:28 51°13.672 2°55.853 -999 2.746525 26.687637 38.490204
2006-03-28 06:44:33 51°13.675 2°55.846 -999 2.733706 26.551298 37.613759
2006-03-28 06:44:38 51°13.678 2°55.839 -999 2.733603 26.557455 36.771024
2006-03-28 06:44:43 51°13.682 2°55.832 -999 2.725127 26.473356 35.860871
2006-03-28 06:44:48 51°13.685 2°55.824 -999 2.728642 26.524723 35.152973
2006-03-28 06:44:53 51°13.688 2°55.817 -999 2.728642 26.524723 35.152973
2006-03-28 06:44:58 51°13.691 2°55.81 -999 2.73226 26.580898 34.445076
2006-03-28 06:45:03 51°13.693 2°55.803 -999 2.741667 26.692614 33.770888
2006-03-28 06:45:09 51°13.696 2°55.796 -999 2.754278 26.838112 33.197828
2006-03-28 06:45:14 51°13.698 2°55.79 -999 2.757276 26.879857 32.658477
2006-03-28 06:45:19 51°13.7 2°55.783 -999 2.764926 26.97604 32.152836
2006-03-28 06:45:24 51°13.702 2°55.777 -999 2.764926 26.97604 32.152836
2006-03-28 06:45:28 51°13.703 2°55.772 -999 2.773404 27.079018 31.714614
2006-03-28 06:45:34 51°13.705 2°55.765 -999 2.767304 27.024581 31.175264
2006-03-28 06:45:39 51°13.706 2°55.76 -999 2.782812 27.201109 30.669623
2006-03-28 06:45:44 51°13.707 2°55.755 -999 2.779917 27.175178 30.197691
2006-03-28 06:45:49 51°13.707 2°55.751 -999 2.796045 27.353385 29.793178
2006-03-28 06:45:54 51°13.708 2°55.748 -999 2.796045 27.353385 29.793178
2006-03-28 06:45:59 51°13.708 2°55.745 -999 2.793977 27.331105 29.388665
2006-03-28 06:46:04 51°13.708 2°55.742 -999 2.789221 27.276869 29.051571
2006-03-28 06:46:08 51°13.709 2°55.741 -999 2.786947 27.250874 28.781896
2006-03-28 06:46:14 51°13.709 2°55.739 -999 2.77909 27.164034 28.54593
2006-03-28 06:46:19 51°13.709 2°55.739 -999 2.784776 27.23648 28.343674
2006-03-28 06:46:24 51°13.709 2°55.739 -999 2.784776 27.23648 28.343674
2006-03-28 06:46:29 51°13.709 2°55.739 -999 2.783535 27.229108 28.141418
2006-03-28 06:46:34 51°13.71 2°55.74 -999 2.777333 27.163786 27.939161
2006-03-28 06:46:39 51°13.71 2°55.741 -999 2.77175 27.106648 27.804324
2006-03-28 06:46:44 51°13.711 2°55.742 -999 2.766891 27.052097 27.635777
2006-03-28 06:46:49 51°13.712 2°55.743 -999 2.755003 26.918224 27.500939
2006-03-28 06:46:54 51°13.713 2°55.744 -999 2.755003 26.918224 27.500939
2006-03-28 06:46:59 51°13.714 2°55.745 -999 2.744562 26.801518 27.399811
2006-03-28 06:47:04 51°13.715 2°55.746 -999 2.735258 26.696393 27.264973
2006-03-28 06:47:09 51°13.715 2°55.746 -999 2.729883 26.64012 27.231264
2006-03-28 06:47:14 51°13.715 2°55.746 -999 2.725748 26.594253 27.163845
2006-03-28 06:47:19 51°13.715 2°55.746 -999 2.71169 26.441174 27.062717
2006-03-28 06:47:24 51°13.714 2°55.745 -999 2.71169 26.441174 27.062717
2006-03-28 06:47:29 51°13.713 2°55.744 -999 2.712931 26.451575 26.995298
2006-03-28 06:47:34 51°13.711 2°55.742 -999 2.705281 26.364453 26.927879
2006-03-28 06:47:39 51°13.709 2°55.741 -999 2.700217 26.310151 26.89417
2006-03-28 06:47:44 51°13.707 2°55.74 -999 2.697529 26.282066 26.86046
2006-03-28 06:47:48 51°13.705 2°55.739 -999 2.697426 26.28168 26.793042
2006-03-28 06:47:54 51°13.704 2°55.737 -999 2.697426 26.28168 26.793042
2006-03-28 06:47:59 51°13.702 2°55.737 -999 2.696599 26.272095 26.759332
2006-03-28 06:48:04 51°13.702 2°55.736 -999 2.697839 26.29117 26.725623
2006-03-28 06:48:09 51°13.702 2°55.736 -999 2.698873 26.304421 26.691913
2006-03-28 06:48:14 51°13.702 2°55.735 -999 2.707246 26.400748 26.691913
2006-03-28 06:48:19 51°13.703 2°55.735 -999 2.720063 26.550003 26.658204
2006-03-28 06:48:24 51°13.704 2°55.735 -999 2.720063 26.550003 26.658204
2006-03-28 06:48:28 51°13.705 2°55.734 -999 2.726369 26.628732 26.624494
2006-03-28 06:48:34 51°13.707 2°55.734 -999 2.733088 26.70832 26.590785
2006-03-28 06:48:39 51°13.71 2°55.732 -999 2.740324 26.79354 26.523366
2006-03-28 06:48:44 51°13.713 2°55.73 -999 2.745389 26.854719 26.455947
2006-03-28 06:48:48 51°13.716 2°55.728 -999 2.746837 26.872524 26.455947
2006-03-28 06:48:54 51°13.721 2°55.724 -999 2.746837 26.872524 26.455947
2006-03-28 06:48:59 51°13.725 2°55.72 -999 2.74663 26.869558 26.422238
2006-03-28 06:49:04 51°13.731 2°55.714 -999 2.746216 26.866585 26.455947
2006-03-28 06:49:09 51°13.737 2°55.709 -999 2.745596 26.864346 26.422238
2006-03-28 06:49:13 51°13.743 2°55.704 -999 2.743219 26.838739 26.422238
2006-03-28 06:49:18 51°13.75 2°55.698 -999 2.733915 26.734145 26.422238
2006-03-28 06:49:23 51°13.758 2°55.691 -999 2.733915 26.734145 26.422238
2006-03-28 06:49:29 51°13.768 2°55.683 -999 2.732158 26.710816 26.388529
2006-03-28 06:49:34 51°13.777 2°55.675 -999 2.729367 26.675642 26.523366
2006-03-28 06:49:39 51°13.786 2°55.667 -999 2.728747 26.668971 26.793042
2006-03-28 06:49:44 51°13.795 2°55.658 -999 2.727713 26.653448 27.332392
2006-03-28 06:49:48 51°13.803 2°55.651 -999 2.722338 26.590525 28.276255
2006-03-28 06:49:54 51°13.815 2°55.641 -999 2.722338 26.590525 28.276255
2006-03-28 06:49:59 51°13.825 2°55.633 -999 2.712311 26.479129 29.489794
2006-03-28 06:50:04 51°13.835 2°55.625 -999 2.693912 26.272171 31.41123
2006-03-28 06:50:09 51°13.846 2°55.617 -999 2.676857 26.078513 33.737178
2006-03-28 06:50:14 51°13.857 2°55.609 -999 2.663524 25.925 35.692324
2006-03-28 06:50:19 51°13.868 2°55.602 -999 2.661354 25.896787 36.265383
2006-03-28 06:50:24 51°13.879 2°55.594 -999 2.661354 25.896787 36.265383
2006-03-28 06:50:28 51°13.887 2°55.588 -999 2.664661 25.936457 35.557486
2006-03-28 06:50:34 51°13.9 2°55.579 -999 2.666935 25.968649 34.512494
2006-03-28 06:50:39 51°13.91 2°55.572 -999 2.680992 26.130004 33.534922
2006-03-28 06:50:44 51°13.92 2°55.565 -999 2.688744 26.228277 32.52364
2006-03-28 06:50:49 51°13.93 2°55.558 -999 2.706109 26.433615 31.546067
2006-03-28 06:50:54 51°13.94 2°55.551 -999 2.706109 26.433615 31.546067
2006-03-28 06:50:58 51°13.948 2°55.546 -999 2.719857 26.591678 30.635913
2006-03-28 06:51:04 51°13.959 2°55.538 -999 2.731745 26.729929 29.69205
2006-03-28 06:51:09 51°13.969 2°55.531 -999 2.741978 26.849797 28.849315
2006-03-28 06:51:14 51°13.978 2°55.525 -999 2.75335 26.9858 28.208836
2006-03-28 06:51:19 51°13.988 2°55.519 -999 2.755727 27.015931 27.838033
2006-03-28 06:51:24 51°13.997 2°55.512 -999 2.755727 27.015931 27.838033
2006-03-28 06:51:29 51°14.006 2°55.506 -999 2.765238 27.125347 27.43352
2006-03-28 06:51:34 51°14.014 2°55.5 -999 2.763998 27.111949 27.130136
2006-03-28 06:51:39 51°14.023 2°55.494 -999 2.752833 26.992142 26.927879
2006-03-28 06:51:44 51°14.031 2°55.488 -999 2.743012 26.884671 26.86046
2006-03-28 06:51:49 51°14.04 2°55.482 -999 2.740015 26.847141 26.759332
2006-03-28 06:51:54 51°14.048 2°55.476 -999 2.740015 26.847141 26.759332
2006-03-28 06:51:59 51°14.056 2°55.471 -999 2.735776 26.803654 26.624494
2006-03-28 06:52:04 51°14.064 2°55.465 -999 2.741048 26.864965 26.523366
2006-03-28 06:52:09 51°14.072 2°55.46 -999 2.743116 26.892469 26.455947
2006-03-28 06:52:14 51°14.079 2°55.454 -999 2.741255 26.87239 26.388529
2006-03-28 06:52:19 51°14.087 2°55.448 -999 2.737741 26.835208 26.388529
2006-03-28 06:52:24 51°14.095 2°55.443 -999 2.737741 26.835208 26.388529
2006-03-28 06:52:28 51°14.101 2°55.438 -999 2.731745 26.766834 26.388529
2006-03-28 06:52:34 51°14.11 2°55.431 -999 2.72575 26.699972 26.388529
2006-03-28 06:52:39 51°14.117 2°55.425 -999 2.721511 26.649873 26.354819
2006-03-28 06:52:44 51°14.125 2°55.419 -999 2.71872 26.618329 26.354819
2006-03-28 06:52:49 51°14.132 2°55.414 -999 2.716136 26.586818 26.354819
2006-03-28 06:52:54 51°14.139 2°55.407 -999 2.716136 26.586818 26.354819
2006-03-28 06:52:58 51°14.145 2°55.403 -999 2.712622 26.545302 26.354819
2006-03-28 06:53:04 51°14.153 2°55.395 -999 2.712725 26.544217 26.2874
2006-03-28 06:53:09 51°14.16 2°55.389 -999 2.710761 26.523072 26.253691
2006-03-28 06:53:14 51°14.167 2°55.382 -999 2.703009 26.437435 26.253691
2006-03-28 06:53:19 51°14.174 2°55.375 -999 2.700631 26.410396 26.219982
2006-03-28 06:53:24 51°14.181 2°55.368 -999 2.700631 26.410396 26.219982
2006-03-28 06:53:29 51°14.187 2°55.361 -999 2.699287 26.394482 26.152563
2006-03-28 06:53:34 51°14.194 2°55.354 -999 2.692569 26.319311 26.118853
2006-03-28 06:53:39 51°14.2 2°55.346 -999 2.680889 26.188695 26.118853
2006-03-28 06:53:44 51°14.206 2°55.339 -999 2.663938 25.998751 26.085144
2006-03-28 06:53:49 51°14.212 2°55.331 -999 2.650089 25.8409 26.186272
2006-03-28 06:53:54 51°14.218 2°55.323 -999 2.650089 25.8409 26.186272
2006-03-28 06:53:59 51°14.224 2°55.315 -999 2.639133 25.717099 26.32111
2006-03-28 06:54:04 51°14.23 2°55.307 -999 2.630038 25.61334 26.455947
2006-03-28 06:54:09 51°14.236 2°55.298 -999 2.615156 25.447075 26.557076
2006-03-28 06:54:14 51°14.241 2°55.29 -999 2.599655 25.273011 26.557076
2006-03-28 06:54:19 51°14.247 2°55.281 -999 2.584774 25.105122 26.557076
2006-03-28 06:54:24 51°14.252 2°55.272 -999 2.584774 25.105122 26.557076
2006-03-28 06:54:28 51°14.256 2°55.265 -999 2.5701 24.941739 26.590785
2006-03-28 06:54:34 51°14.263 2°55.254 -999 2.55677 24.79219 26.590785
2006-03-28 06:54:39 51°14.268 2°55.245 -999 2.533624 24.535725 26.590785
2006-03-28 06:54:44 51°14.274 2°55.237 -999 2.514715 24.324081 26.557076
2006-03-28 06:54:48 51°14.278 2°55.229 -999 2.494774 24.099225 26.489657
2006-03-28 06:54:54 51°14.284 2°55.218 -999 2.47659 23.896053 26.455947
2006-03-28 06:54:59 51°14.289 2°55.21 -999 2.47659 23.896053 26.455947
2006-03-28 06:55:04 51°14.295 2°55.2 -999 2.470494 23.826957 26.388529
2006-03-28 06:55:09 51°14.3 2°55.192 -999 2.469564 23.814506 26.354819
2006-03-28 06:55:14 51°14.305 2°55.183 -999 2.474937 23.87266 26.253691
2006-03-28 06:55:19 51°14.311 2°55.173 -999 2.479793 23.92865 26.152563
2006-03-28 06:55:24 51°14.316 2°55.164 -999 2.479793 23.92865 26.152563
2006-03-28 06:55:29 51°14.321 2°55.155 -999 2.494154 24.087365 26.085144
2006-03-28 06:55:34 51°14.326 2°55.146 -999 2.506966 24.229842 26.017725
2006-03-28 06:55:39 51°14.331 2°55.137 -999 2.514095 24.31149 25.916597
2006-03-28 06:55:44 51°14.337 2°55.128 -999 2.514611 24.317642 25.815469
2006-03-28 06:55:49 51°14.342 2°55.119 -999 2.515335 24.323984 25.781759
2006-03-28 06:55:54 51°14.347 2°55.11 -999 2.515335 24.323984 25.781759
2006-03-28 06:55:58 51°14.351 2°55.102 -999 2.520708 24.381025 25.74805
2006-03-28 06:56:04 51°14.358 2°55.09 -999 2.53197 24.506028 25.714341
2006-03-28 06:56:08 51°14.362 2°55.081 -999 2.547883 24.684004 25.74805
2006-03-28 06:56:13 51°14.369 2°55.069 -999 2.564726 24.87489 25.781759
2006-03-28 06:56:18 51°14.375 2°55.056 -999 2.5825 25.075346 25.815469
2006-03-28 06:56:23 51°14.381 2°55.041 -999 2.5825 25.075346 25.815469
2006-03-28 06:56:28 51°14.386 2°55.025 -999 2.599345 25.264832 25.815469
2006-03-28 06:56:33 51°14.392 2°55.008 -999 2.6134 25.424788 25.781759
2006-03-28 06:56:38 51°14.396 2°54.99 -999 2.620117 25.505048 25.74805
2006-03-28 06:56:43 51°14.4 2°54.971 -999 2.628798 25.603589 25.714341
2006-03-28 06:56:48 51°14.404 2°54.951 -999 2.627145 25.588706 25.613212
2006-03-28 06:56:54 51°14.408 2°54.926 -999 2.627145 25.588706 25.613212
2006-03-28 06:56:58 51°14.41 2°54.909 -999 2.612573 25.428548 25.512084
2006-03-28 06:57:03 51°14.412 2°54.888 -999 2.586324 25.136184 25.343537
2006-03-28 06:57:08 51°14.413 2°54.865 -999 2.55398 24.778147 25.309828
2006-03-28 06:57:13 51°14.413 2°54.843 -999 2.549537 24.726049 25.377247
2006-03-28 06:57:18 51°14.414 2°54.82 -999 2.56297 24.880114 25.512084
2006-03-28 06:57:23 51°14.414 2°54.797 -999 2.56297 24.880114 25.512084
2006-03-28 06:57:28 51°14.414 2°54.773 -999 2.583947 25.122563 25.646922
2006-03-28 06:57:33 51°14.414 2°54.749 -999 2.625181 25.584599 25.74805
2006-03-28 06:57:38 51°14.414 2°54.724 -999 2.659804 25.979451 25.815469
2006-03-28 06:57:43 51°14.414 2°54.699 -999 2.712209 26.574586 25.849178
2006-03-28 06:57:48 51°14.413 2°54.674 -999 2.748078 26.986275 25.849178
2006-03-28 06:57:53 51°14.413 2°54.649 -999 2.748078 26.986275 25.849178
2006-03-28 06:57:58 51°14.412 2°54.623 -999 2.790567 27.47878 25.916597
2006-03-28 06:58:04 51°14.411 2°54.592 -999 2.840091 28.053885 25.984016
2006-03-28 06:58:08 51°14.411 2°54.571 -999 2.887759 28.608377 26.017725
2006-03-28 06:58:13 51°14.41 2°54.545 -999 2.921884 29.012971 26.051435
2006-03-28 06:58:18 51°14.409 2°54.519 -999 2.944429 29.283728 26.051435
2006-03-28 06:58:23 51°14.408 2°54.492 -999 2.944429 29.283728 26.051435
2006-03-28 06:58:28 51°14.406 2°54.465 -999 2.982282 29.720293 26.085144
2006-03-28 06:58:33 51°14.404 2°54.438 -999 2.996865 29.895829 26.152563
2006-03-28 06:58:38 51°14.4 2°54.412 -999 3.009277 30.044348 26.219982
2006-03-28 06:58:43 51°14.395 2°54.386 -999 3.027171 30.254442 26.253691
2006-03-28 06:58:48 51°14.389 2°54.361 -999 3.03255 30.322309 26.253691
2006-03-28 06:58:52 51°14.383 2°54.341 -999 3.03255 30.322309 26.253691
2006-03-28 06:58:58 51°14.373 2°54.311 -999 3.034826 30.356778 26.253691
2006-03-28 06:59:03 51°14.365 2°54.286 -999 3.049825 30.530298 26.219982
2006-03-28 06:59:08 51°14.356 2°54.261 -999 3.058203 30.629011 26.253691
2006-03-28 06:59:13 51°14.347 2°54.237 -999 3.066583 30.732098 26.219982
2006-03-28 06:59:18 51°14.338 2°54.212 -999 3.070824 30.782533 26.253691
2006-03-28 06:59:23 51°14.328 2°54.187 -999 3.070824 30.782533 26.253691
2006-03-28 06:59:28 51°14.318 2°54.162 -999 3.066376 30.735821 26.253691
2006-03-28 06:59:33 51°14.308 2°54.139 -999 3.073617 30.816936 26.219982
2006-03-28 06:59:38 51°14.298 2°54.113 -999 3.069583 30.77394 26.118853
2006-03-28 06:59:43 51°14.288 2°54.089 -999 3.075479 30.837577 25.984016
2006-03-28 06:59:48 51°14.278 2°54.063 -999 3.074548 30.828981 25.849178
2006-03-28 06:59:53 51°14.269 2°54.039 -999 3.074548 30.828981 25.849178
2006-03-28 06:59:58 51°14.259 2°54.013 -999 3.083238 30.92274 25.74805
2006-03-28 07:00:03 51°14.25 2°53.988 -999 3.080134 30.884007 25.646922
2006-03-28 07:00:08 51°14.241 2°53.961 -999 3.083444 30.91293 25.579503
2006-03-28 07:00:13 51°14.233 2°53.935 -999 3.081686 30.8943 25.545794
2006-03-28 07:00:18 51°14.224 2°53.909 -999 3.083548 30.913213 25.512084
2006-03-28 07:00:24 51°14.214 2°53.878 -999 3.084893 30.930715 25.512084
2006-03-28 07:00:28 51°14.207 2°53.856 -999 3.084893 30.930715 25.512084
2006-03-28 07:00:33 51°14.198 2°53.831 -999 3.081996 30.907245 25.512084
2006-03-28 07:00:38 51°14.189 2°53.805 -999 3.084893 30.939365 25.478375
2006-03-28 07:00:43 51°14.18 2°53.778 -999 3.08541 30.945102 25.444665
2006-03-28 07:00:48 51°14.171 2°53.752 -999 3.072376 30.800591 25.377247
2006-03-28 07:00:53 51°14.161 2°53.726 -999 3.072376 30.800591 25.377247
2006-03-28 07:00:58 51°14.152 2°53.7 -999 3.077858 30.862229 25.343537
2006-03-28 07:01:03 51°14.143 2°53.674 -999 3.069582 30.769637 25.343537
2006-03-28 07:01:08 51°14.133 2°53.648 -999 3.074444 30.822661 25.343537
2006-03-28 07:01:14 51°14.122 2°53.617 -999 3.064721 30.712329 25.309828
2006-03-28 07:01:18 51°14.114 2°53.597 -999 3.074651 30.822369 25.309828
2006-03-28 07:01:23 51°14.104 2°53.571 -999 3.074651 30.822369 25.309828
2006-03-28 07:01:28 51°14.094 2°53.546 -999 3.075582 30.835275 25.276118
2006-03-28 07:01:33 51°14.084 2°53.52 -999 3.069376 30.767344 25.242409
2006-03-28 07:01:38 51°14.074 2°53.494 -999 3.066583 30.735535 25.242409
2006-03-28 07:01:43 51°14.065 2°53.468 -999 3.073927 30.813482 25.17499
2006-03-28 07:01:48 51°14.055 2°53.442 -999 3.080237 30.88429 25.141281
2006-03-28 07:01:53 51°14.046 2°53.416 -999 3.080237 30.88429 25.141281
2006-03-28 07:01:58 51°14.036 2°53.39 -999 3.080341 30.885437 25.107571
2006-03-28 07:02:03 51°14.027 2°53.363 -999 3.081065 30.893465 25.073862
2006-03-28 07:02:08 51°14.017 2°53.337 -999 3.081996 30.902924 25.006443
2006-03-28 07:02:13 51°14.008 2°53.31 -999 3.084375 30.930169 24.972734
2006-03-28 07:02:18 51°13.999 2°53.284 -999 3.086548 30.953394 24.972734
2006-03-28 07:02:23 51°13.989 2°53.257 -999 3.086548 30.953394 24.972734
2006-03-28 07:02:28 51°13.98 2°53.231 -999 3.092651 31.021088 25.040153
2006-03-28 07:02:33 51°13.971 2°53.205 -999 3.097203 31.071585 25.006443
2006-03-28 07:02:38 51°13.96 2°53.178 -999 3.103514 31.141611 24.972734
2006-03-28 07:02:43 51°13.95 2°53.152 -999 3.107238 31.182949 24.905315
2006-03-28 07:02:48 51°13.94 2°53.127 -999 3.110859 31.222272 24.804187
2006-03-28 07:02:53 51°13.929 2°53.101 -999 3.110859 31.222272 24.804187
2006-03-28 07:02:58 51°13.919 2°53.075 -999 3.114687 31.263023 24.669349
2006-03-28 07:03:03 51°13.909 2°53.048 -999 3.116963 31.286546 24.568221
2006-03-28 07:03:08 51°13.899 2°53.022 -999 3.118722 31.30345 24.433383
2006-03-28 07:03:13 51°13.889 2°52.995 -999 3.12017 31.316907 24.264836
2006-03-28 07:03:18 51°13.88 2°52.969 -999 3.115411 31.263197 24.163708
2006-03-28 07:03:23 51°13.87 2°52.943 -999 3.115411 31.263197 24.163708
2006-03-28 07:03:28 51°13.86 2°52.916 -999 3.123274 31.351372 24.06258
2006-03-28 07:03:33 51°13.85 2°52.89 -999 3.124722 31.367457 23.995161
2006-03-28 07:03:38 51°13.84 2°52.864 -999 3.125757 31.37807 23.961452
2006-03-28 07:03:43 51°13.83 2°52.837 -999 3.126584 31.386385 23.894033
2006-03-28 07:03:48 51°13.819 2°52.811 -999 3.127619 31.396999 23.894033
2006-03-28 07:03:53 51°13.809 2°52.785 -999 3.127619 31.396999 23.894033
2006-03-28 07:03:58 51°13.799 2°52.758 -999 3.127826 31.397541 23.826614
2006-03-28 07:04:03 51°13.79 2°52.732 -999 3.12855 31.404707 23.826614
2006-03-28 07:04:08 51°13.78 2°52.705 -999 3.129171 31.413357 23.725486
2006-03-28 07:04:13 51°13.77 2°52.679 -999 3.129585 31.417954 23.725486
2006-03-28 07:04:18 51°13.76 2°52.652 -999 3.129792 31.417617 23.691777
2006-03-28 07:04:23 51°13.751 2°52.625 -999 3.129792 31.417617 23.691777
2006-03-28 07:04:28 51°13.741 2°52.599 -999 3.130205 31.417823 23.658067
2006-03-28 07:04:33 51°13.73 2°52.572 -999 3.13093 31.427622 23.624358
2006-03-28 07:04:38 51°13.72 2°52.546 -999 3.131654 31.434787 23.624358
2006-03-28 07:04:43 51°13.71 2°52.52 -999 3.132171 31.439654 23.590648
2006-03-28 07:04:48 51°13.699 2°52.495 -999 3.132792 31.446548 23.556939
2006-03-28 07:04:52 51°13.69 2°52.474 -999 3.132792 31.446548 23.556939
2006-03-28 07:04:58 51°13.678 2°52.442 -999 3.13362 31.458378 23.52323
2006-03-28 07:05:03 51°13.668 2°52.417 -999 3.134137 31.464124 23.52323
2006-03-28 07:05:08 51°13.658 2°52.39 -999 3.134447 31.465813 23.52323
2006-03-28 07:05:13 51°13.648 2°52.364 -999 3.134964 31.4698 23.52323
2006-03-28 07:05:18 51°13.638 2°52.337 -999 3.135482 31.472908 23.52323
2006-03-28 07:05:23 51°13.629 2°52.31 -999 3.135482 31.472908 23.52323
2006-03-28 07:05:28 51°13.619 2°52.284 -999 3.135792 31.473717 23.52323
2006-03-28 07:05:33 51°13.609 2°52.257 -999 3.136102 31.473646 23.556939
2006-03-28 07:05:38 51°13.6 2°52.231 -999 3.135689 31.466413 23.590648
2006-03-28 07:05:43 51°13.59 2°52.204 -999 3.134033 31.450669 23.691777
2006-03-28 07:05:48 51°13.58 2°52.178 -999 3.131343 31.426948 23.826614
2006-03-28 07:05:53 51°13.57 2°52.151 -999 3.131343 31.426948 23.826614
2006-03-28 07:05:58 51°13.56 2°52.125 -999 3.12855 31.398563 23.961452
2006-03-28 07:06:03 51°13.55 2°52.098 -999 3.126895 31.383691 24.06258
2006-03-28 07:06:08 51°13.54 2°52.071 -999 3.126895 31.383691 24.06258
2006-03-28 07:06:13 51°13.531 2°52.045 -999 3.12855 31.398563 23.961452
2006-03-28 07:06:18 51°13.522 2°52.018 -999 3.130826 31.419448 23.826614
2006-03-28 07:06:23 51°13.512 2°51.991 -999 3.130826 31.419448 23.826614
2006-03-28 07:06:28 51°13.502 2°51.964 -999 3.132895 31.436276 23.725486
2006-03-28 07:06:33 51°13.492 2°51.937 -999 3.134654 31.451411 23.590648
2006-03-28 07:06:38 51°13.482 2°51.911 -999 3.135999 31.463707 23.52323
2006-03-28 07:06:43 51°13.473 2°51.883 -999 3.137137 31.475462 23.422101
2006-03-28 07:06:48 51°13.463 2°51.857 -999 3.138068 31.484921 23.354683
2006-03-28 07:06:53 51°13.453 2°51.83 -999 3.138068 31.484921 23.354683
2006-03-28 07:06:58 51°13.443 2°51.803 -999 3.138689 31.490933 23.287264
2006-03-28 07:07:03 51°13.433 2°51.777 -999 3.139206 31.494038 23.253554
2006-03-28 07:07:08 51°13.423 2°51.751 -999 3.139516 31.494845 23.253554
2006-03-28 07:07:13 51°13.413 2°51.724 -999 3.139827 31.495652 23.219845
2006-03-28 07:07:18 51°13.402 2°51.698 -999 3.140137 31.499098 23.186136
2006-03-28 07:07:23 51°13.392 2°51.671 -999 3.140344 31.503154 23.152426
2006-03-28 07:07:28 51°13.382 2°51.645 -999 3.140344 31.503154 23.152426
2006-03-28 07:07:33 51°13.372 2°51.619 -999 3.140344 31.503154 23.152426
2006-03-28 07:07:38 51°13.362 2°51.593 -999 3.140448 31.506062 23.118717
2006-03-28 07:07:43 51°13.352 2°51.565 -999 3.140448 31.503423 23.118717
2006-03-28 07:07:48 51°13.342 2°51.54 -999 3.140448 31.501664 23.085007
2006-03-28 07:07:53 51°13.332 2°51.513 -999 3.140448 31.501664 23.085007
2006-03-28 07:07:58 51°13.323 2°51.486 -999 3.140344 31.499636 23.051298
2006-03-28 07:08:03 51°13.313 2°51.459 -999 3.140551 31.502812 23.017589
2006-03-28 07:08:08 51°13.304 2°51.433 -999 3.140758 31.505109 22.983879
2006-03-28 07:08:13 51°13.294 2°51.406 -999 3.140965 31.507406 22.95017
2006-03-28 07:08:18 51°13.284 2°51.379 -999 3.141379 31.50936 22.882751
2006-03-28 07:08:23 51°13.275 2°51.353 -999 3.141379 31.50936 22.882751
2006-03-28 07:08:28 51°13.265 2°51.326 -999 3.141793 31.510435 22.882751
2006-03-28 07:08:33 51°13.256 2°51.299 -999 3.142413 31.512047 22.882751
2006-03-28 07:08:38 51°13.246 2°51.273 -999 3.143137 31.513928 22.882751
2006-03-28 07:08:44 51°13.234 2°51.241 -999 3.143655 31.515271 22.849042
2006-03-28 07:08:48 51°13.226 2°51.219 -999 3.143034 31.502233 22.815332
2006-03-28 07:08:53 51°13.217 2°51.193 -999 3.143034 31.502233 22.815332
2006-03-28 07:08:58 51°13.207 2°51.166 -999 3.141068 31.476919 22.714204
2006-03-28 07:09:04 51°13.195 2°51.134 -999 3.138378 31.445338 22.680494
2006-03-28 07:09:08 51°13.187 2°51.112 -999 3.136205 31.419498 22.646785
2006-03-28 07:09:14 51°13.176 2°51.081 -999 3.133619 31.387327 22.613076
2006-03-28 07:09:18 51°13.168 2°51.06 -999 3.131446 31.360627 22.613076
2006-03-28 07:09:24 51°13.157 2°51.027 -999 3.129273 31.333934 22.613076
2006-03-28 07:09:28 51°13.149 2°51.005 -999 3.129273 31.333934 22.613076
2006-03-28 07:09:34 51°13.137 2°50.973 -999 3.127721 31.312378 22.579366
2006-03-28 07:09:38 51°13.13 2°50.952 -999 3.12648 31.295138 22.579366
2006-03-28 07:09:44 51°13.118 2°50.919 -999 3.125652 31.282486 22.579366
2006-03-28 07:09:48 51°13.111 2°50.898 -999 3.125031 31.272127 22.613076
2006-03-28 07:09:54 51°13.099 2°50.865 -999 3.125031 31.272127 22.613076
2006-03-28 07:09:58 51°13.092 2°50.844 -999 3.124514 31.261175 22.579366
2006-03-28 07:10:04 51°13.08 2°50.811 -999 3.123893 31.251693 22.613076
2006-03-28 07:10:08 51°13.073 2°50.79 -999 3.123273 31.240472 22.579366
2006-03-28 07:10:14 51°13.061 2°50.757 -999 3.122548 31.230719 22.579366
2006-03-28 07:10:19 51°13.051 2°50.731 -999 3.121928 31.222112 22.613076
2006-03-28 07:10:24 51°13.041 2°50.704 -999 3.121928 31.222112 22.613076
2006-03-28 07:10:28 51°13.033 2°50.683 -999 3.121203 31.212362 22.613076
2006-03-28 07:10:34 51°13.022 2°50.651 -999 3.120789 31.205177 22.646785
2006-03-28 07:10:38 51°13.013 2°50.63 -999 3.120789 31.20344 22.646785
2006-03-28 07:10:44 51°13.002 2°50.598 -999 3.121307 31.205686 22.714204
2006-03-28 07:10:48 51°12.994 2°50.576 -999 3.122445 31.214798 22.781623
2006-03-28 07:10:54 51°12.982 2°50.544 -999 3.123686 31.225052 22.815332
2006-03-28 07:10:59 51°12.973 2°50.517 -999 3.123686 31.225052 22.815332
2006-03-28 07:11:04 51°12.963 2°50.49 -999 3.124514 31.231598 22.849042
2006-03-28 07:11:08 51°12.955 2°50.469 -999 3.125031 31.23558 22.849042
2006-03-28 07:11:14 51°12.944 2°50.436 -999 3.125548 31.239561 22.849042
2006-03-28 07:11:19 51°12.934 2°50.409 -999 3.126273 31.245831 22.849042
2006-03-28 07:11:24 51°12.924 2°50.383 -999 3.126273 31.245831 22.849042
2006-03-28 07:11:28 51°12.916 2°50.362 -999 3.127411 31.255806 22.849042
2006-03-28 07:11:33 51°12.906 2°50.334 -999 3.129169 31.271774 22.882751
2006-03-28 07:11:38 51°12.897 2°50.307 -999 3.130928 31.28774 22.882751
2006-03-28 07:11:44 51°12.885 2°50.275 -999 3.132687 31.302834 22.882751
2006-03-28 07:11:49 51°12.876 2°50.248 -999 3.134135 31.313623 22.849042
2006-03-28 07:11:54 51°12.866 2°50.221 -999 3.134135 31.313623 22.849042
2006-03-28 07:11:58 51°12.859 2°50.199 -999 3.135066 31.318692 22.849042
2006-03-28 07:12:04 51°12.847 2°50.167 -999 3.136101 31.325774 22.815332
2006-03-28 07:12:08 51°12.84 2°50.146 -999 3.137756 31.339715 22.781623
2006-03-28 07:12:14 51°12.828 2°50.114 -999 3.139515 31.356539 22.747913
2006-03-28 07:12:18 51°12.82 2°50.093 -999 3.141584 31.375049 22.680494
2006-03-28 07:12:23 51°12.81 2°50.066 -999 3.141584 31.375049 22.680494
2006-03-28 07:12:29 51°12.799 2°50.034 -999 3.144171 31.400145 22.613076
2006-03-28 07:12:34 51°12.789 2°50.007 -999 3.146447 31.420936 22.545657
2006-03-28 07:12:39 51°12.78 2°49.981 -999 3.148723 31.441725 22.511947
2006-03-28 07:12:44 51°12.77 2°49.954 -999 3.150896 31.460493 22.444529
2006-03-28 07:12:48 51°12.762 2°49.933 -999 3.152654 31.473811 22.410819
2006-03-28 07:12:54 51°12.751 2°49.902 -999 3.154931 31.493715 22.37711
2006-03-28 07:12:58 51°12.743 2°49.881 -999 3.154931 31.493715 22.37711
2006-03-28 07:13:04 51°12.732 2°49.849 -999 3.157 31.510455 22.3434
2006-03-28 07:13:08 51°12.724 2°49.828 -999 3.158966 31.524299 22.3434
2006-03-28 07:13:14 51°12.712 2°49.796 -999 3.161138 31.540423 22.3434
2006-03-28 07:13:19 51°12.703 2°49.77 -999 3.163104 31.555131 22.309691
2006-03-28 07:13:24 51°12.693 2°49.743 -999 3.163104 31.555131 22.309691
2006-03-28 07:13:28 51°12.685 2°49.722 -999 3.166001 31.580992 22.275982
2006-03-28 07:13:34 51°12.674 2°49.69 -999 3.168381 31.599384 22.208563
2006-03-28 07:13:39 51°12.665 2°49.664 -999 3.17045 31.613468 22.174853
2006-03-28 07:13:44 51°12.655 2°49.637 -999 3.172726 31.628954 22.141144
2006-03-28 07:13:48 51°12.647 2°49.615 -999 3.174485 31.638726 22.107435
2006-03-28 07:13:54 51°12.636 2°49.583 -999 3.174485 31.638726 22.107435
2006-03-28 07:13:58 51°12.628 2°49.562 -999 3.176761 31.6542 22.073725
2006-03-28 07:14:04 51°12.617 2°49.53 -999 3.179141 31.671685 22.073725
2006-03-28 07:14:08 51°12.609 2°49.508 -999 3.1809 31.682318 22.040016
2006-03-28 07:14:14 51°12.598 2°49.476 -999 3.182969 31.69637 22.006306
2006-03-28 07:14:18 51°12.59 2°49.454 -999 3.184728 31.704364 22.006306
2006-03-28 07:14:24 51°12.579 2°49.422 -999 3.187211 31.719459 22.040016
2006-03-28 07:14:28 51°12.571 2°49.401 -999 3.187211 31.719459 22.040016
2006-03-28 07:14:34 51°12.56 2°49.368 -999 3.189694 31.73367 22.040016
2006-03-28 07:14:38 51°12.552 2°49.347 -999 3.192488 31.753044 22.040016
2006-03-28 07:14:44 51°12.541 2°49.315 -999 3.194868 31.766974 22.040016
2006-03-28 07:14:48 51°12.533 2°49.293 -999 3.197351 31.782036 21.972597
2006-03-28 07:14:54 51°12.522 2°49.262 -999 3.197351 31.782036 21.972597
2006-03-28 07:14:58 51°12.514 2°49.24 -999 3.199938 31.798229 21.938888
2006-03-28 07:15:04 51°12.502 2°49.208 -999 3.202214 31.810998 21.905178
2006-03-28 07:15:08 51°12.495 2°49.187 -999 3.205008 31.829451 21.837759
2006-03-28 07:15:14 51°12.484 2°49.155 -999 3.208215 31.849813 21.770341
2006-03-28 07:15:19 51°12.474 2°49.129 -999 3.211423 31.870161 21.770341
2006-03-28 07:15:24 51°12.465 2°49.102 -999 3.211423 31.870161 21.770341
2006-03-28 07:15:28 51°12.457 2°49.081 -999 3.215148 31.894426 21.736631
2006-03-28 07:15:34 51°12.445 2°49.049 -999 3.220011 31.928542 21.702922
2006-03-28 07:15:39 51°12.435 2°49.023 -999 3.224254 31.959326 21.736631
2006-03-28 07:15:44 51°12.426 2°48.997 -999 3.228082 31.987304 21.736631
2006-03-28 07:15:48 51°12.419 2°48.975 -999 3.231704 32.019147 21.80405
2006-03-28 07:15:54 51°12.407 2°48.943 -999 3.231704 32.019147 21.80405
2006-03-28 07:15:59 51°12.398 2°48.917 -999 3.235533 32.058533 21.905178
2006-03-28 07:16:04 51°12.388 2°48.889 -999 3.238844 32.095766 21.972597
2006-03-28 07:16:08 51°12.381 2°48.868 -999 3.24257 32.141964 22.006306
2006-03-28 07:16:14 51°12.37 2°48.836 -999 3.245468 32.183511 22.073725
2006-03-28 07:16:18 51°12.362 2°48.815 -999 3.247227 32.210805 22.107435
2006-03-28 07:16:24 51°12.351 2°48.783 -999 3.248779 32.24027 22.107435
2006-03-28 07:16:28 51°12.343 2°48.762 -999 3.248779 32.24027 22.107435
2006-03-28 07:16:34 51°12.332 2°48.73 -999 3.249814 32.263181 22.141144
2006-03-28 07:16:38 51°12.324 2°48.708 -999 3.250849 32.28522 22.141144
2006-03-28 07:16:43 51°12.315 2°48.682 -999 3.25147 32.30183 22.107435
2006-03-28 07:16:48 51°12.305 2°48.654 -999 3.251884 32.314391 22.107435
2006-03-28 07:16:54 51°12.294 2°48.623 -999 3.251884 32.314391 22.107435
2006-03-28 07:16:59 51°12.284 2°48.597 -999 3.252195 32.324038 22.073725
2006-03-28 07:17:03 51°12.276 2°48.576 -999 3.252195 32.32938 22.040016
2006-03-28 07:17:08 51°12.267 2°48.55 -999 3.252092 32.330021 22.040016
2006-03-28 07:17:14 51°12.255 2°48.518 -999 3.252092 32.331802 22.040016
2006-03-28 07:17:19 51°12.245 2°48.492 -999 3.252609 32.341956 22.073725
2006-03-28 07:17:24 51°12.236 2°48.465 -999 3.252609 32.341956 22.073725
2006-03-28 07:17:28 51°12.228 2°48.444 -999 3.25292 32.348942 22.073725
2006-03-28 07:17:34 51°12.217 2°48.411 -999 3.25292 32.349833 22.073725
2006-03-28 07:17:39 51°12.208 2°48.385 -999 3.253023 32.350973 22.073725
2006-03-28 07:17:44 51°12.198 2°48.359 -999 3.25323 32.353254 22.073725
2006-03-28 07:17:48 51°12.191 2°48.337 -999 3.253437 32.356427 22.040016
2006-03-28 07:17:54 51°12.179 2°48.304 -999 3.253437 32.356427 22.040016
2006-03-28 07:17:59 51°12.17 2°48.278 -999 3.253747 32.358956 22.073725
2006-03-28 07:18:04 51°12.161 2°48.251 -999 3.253851 32.359205 22.040016
2006-03-28 07:18:08 51°12.153 2°48.229 -999 3.254058 32.36327 22.040016
2006-03-28 07:18:14 51°12.142 2°48.197 -999 3.254161 32.36441 22.040016
2006-03-28 07:18:19 51°12.133 2°48.171 -999 3.254368 32.366691 22.040016
2006-03-28 07:18:24 51°12.123 2°48.144 -999 3.254472 32.368724 22.040016
2006-03-28 07:18:28 51°12.115 2°48.123 -999 3.254472 32.368724 22.040016
2006-03-28 07:18:34 51°12.104 2°48.091 -999 3.254472 32.368724 22.040016
2006-03-28 07:18:38 51°12.095 2°48.07 -999 3.254679 32.371897 22.040016
2006-03-28 07:18:44 51°12.084 2°48.039 -999 3.254886 32.375962 22.006306
2006-03-28 07:18:48 51°12.076 2°48.018 -999 3.255093 32.380921 22.006306
2006-03-28 07:18:54 51°12.064 2°47.985 -999 3.255093 32.380921 22.006306
2006-03-28 07:18:58 51°12.057 2°47.964 -999 3.2553 32.384095 22.006306
2006-03-28 07:19:03 51°12.047 2°47.938 -999 3.255403 32.387021 22.006306
2006-03-28 07:19:08 51°12.038 2°47.911 -999 3.255507 32.388162 22.006306
2006-03-28 07:19:14 51°12.026 2°47.879 -999 3.255714 32.389551 22.040016
2006-03-28 07:19:19 51°12.017 2°47.853 -999 3.256024 32.397438 22.073725
2006-03-28 07:19:24 51°12.008 2°47.826 -999 3.256024 32.397438 22.073725
2006-03-28 07:19:28 51°12 2°47.804 -999 3.256024 32.405477 22.141144
2006-03-28 07:19:34 51°11.988 2°47.773 -999 3.256025 32.416203 22.208563
2006-03-28 07:19:39 51°11.979 2°47.746 -999 3.255611 32.430422 22.275982
2006-03-28 07:19:44 51°11.969 2°47.72 -999 3.255301 32.444905 22.309691
2006-03-28 07:19:48 51°11.961 2°47.698 -999 3.25468 32.457768 22.37711
2006-03-28 07:19:54 51°11.95 2°47.666 -999 3.254059 32.46975 22.478238
2006-03-28 07:19:58 51°11.943 2°47.645 -999 3.254059 32.46975 22.478238
2006-03-28 07:20:04 51°11.931 2°47.612 -999 3.253128 32.481908 22.545657
2006-03-28 07:20:08 51°11.924 2°47.591 -999 3.252093 32.491138 22.613076
2006-03-28 07:20:13 51°11.914 2°47.564 -999 3.251162 32.498827 22.680494
2006-03-28 07:20:19 51°11.903 2°47.532 -999 3.250438 32.50882 22.747913
2006-03-28 07:20:24 51°11.894 2°47.505 -999 3.250438 32.50882 22.747913
2006-03-28 07:20:28 51°11.886 2°47.484 -999 3.249714 32.515216 22.781623
2006-03-28 07:20:34 51°11.875 2°47.451 -999 3.2493 32.522355 22.781623
2006-03-28 07:20:39 51°11.866 2°47.425 -999 3.248886 32.528597 22.815332
2006-03-28 07:20:44 51°11.857 2°47.398 -999 3.248472 32.533939 22.815332
2006-03-28 07:20:48 51°11.85 2°47.376 -999 3.248162 32.537722 22.815332
2006-03-28 07:20:54 51°11.838 2°47.345 -999 3.248162 32.537722 22.815332
2006-03-28 07:20:59 51°11.829 2°47.318 -999 3.247955 32.544465 22.781623
2006-03-28 07:21:04 51°11.819 2°47.292 -999 3.247645 32.543731 22.714204
2006-03-28 07:21:08 51°11.812 2°47.27 -999 3.247541 32.545295 22.680494
2006-03-28 07:21:14 51°11.8 2°47.238 -999 3.247645 32.548253 22.646785
2006-03-28 07:21:18 51°11.793 2°47.217 -999 3.247852 32.553266 22.579366
2006-03-28 07:21:23 51°11.783 2°47.191 -999 3.247852 32.553266 22.579366
2006-03-28 07:21:28 51°11.774 2°47.164 -999 3.248059 32.5619 22.579366
2006-03-28 07:21:34 51°11.763 2°47.132 -999 3.248369 32.568065 22.613076
2006-03-28 07:21:39 51°11.754 2°47.105 -999 3.248576 32.573987 22.613076
2006-03-28 07:21:44 51°11.745 2°47.078 -999 3.248783 32.579911 22.646785
2006-03-28 07:21:48 51°11.737 2°47.057 -999 3.248887 32.583779 22.714204
2006-03-28 07:21:54 51°11.726 2°47.024 -999 3.248887 32.583779 22.714204
2006-03-28 07:21:58 51°11.719 2°47.003 -999 3.248783 32.584442 22.815332
2006-03-28 07:22:04 51°11.708 2°46.971 -999 3.24868 32.580573 22.882751
2006-03-28 07:22:08 51°11.701 2°46.949 -999 3.24868 32.576949 23.017589
2006-03-28 07:22:14 51°11.689 2°46.918 -999 3.24868 32.57242 23.118717
2006-03-28 07:22:19 51°11.68 2°46.891 -999 3.248783 32.568137 23.186136
2006-03-28 07:22:24 51°11.671 2°46.864 -999 3.248783 32.568137 23.186136
2006-03-28 07:22:28 51°11.664 2°46.843 -999 3.248886 32.56476 23.253554
2006-03-28 07:22:34 51°11.653 2°46.81 -999 3.24899 32.562289 23.253554
2006-03-28 07:22:39 51°11.644 2°46.784 -999 3.249197 32.561873 23.219845
2006-03-28 07:22:44 51°11.635 2°46.757 -999 3.2493 32.560308 23.152426
2006-03-28 07:22:48 51°11.628 2°46.735 -999 3.249507 32.560797 23.118717
2006-03-28 07:22:54 51°11.617 2°46.703 -999 3.249507 32.560797 23.118717
2006-03-28 07:22:58 51°11.61 2°46.682 -999 3.250335 32.561847 23.051298
2006-03-28 07:23:04 51°11.599 2°46.65 -999 3.251887 32.565512 22.983879
2006-03-28 07:23:08 51°11.591 2°46.629 -999 3.253853 32.565634 22.91646
2006-03-28 07:23:14 51°11.58 2°46.597 -999 3.256233 32.568542 22.815332
2006-03-28 07:23:18 51°11.572 2°46.576 -999 3.258613 32.572352 22.747913
2006-03-28 07:23:24 51°11.561 2°46.544 -999 3.260786 32.572067 22.680494
2006-03-28 07:23:28 51°11.553 2°46.523 -999 3.260786 32.572067 22.680494
2006-03-28 07:23:34 51°11.542 2°46.491 -999 3.263063 32.575633 22.613076
2006-03-28 07:23:39 51°11.533 2°46.464 -999 3.26565 32.588937 22.613076
2006-03-28 07:23:43 51°11.526 2°46.443 -999 3.267305 32.599141 22.646785
2006-03-28 07:23:48 51°11.517 2°46.416 -999 3.267719 32.607324 22.680494
2006-03-28 07:23:54 51°11.506 2°46.383 -999 3.267719 32.607324 22.680494
2006-03-28 07:23:58 51°11.499 2°46.362 -999 3.267926 32.614121 22.714204
2006-03-28 07:24:04 51°11.489 2°46.33 -999 3.268237 32.621163 22.781623
2006-03-28 07:24:08 51°11.481 2°46.308 -999 3.268754 32.628692 22.815332
2006-03-28 07:24:14 51°11.471 2°46.276 -999 3.269065 32.634834 22.882751
2006-03-28 07:24:19 51°11.462 2°46.25 -999 3.269479 32.639415 22.882751
2006-03-28 07:24:24 51°11.453 2°46.223 -999 3.269479 32.639415 22.882751
2006-03-28 07:24:28 51°11.446 2°46.202 -999 3.270514 32.643645 22.95017
2006-03-28 07:24:34 51°11.435 2°46.17 -999 3.272169 32.649327 23.219845
2006-03-28 07:24:39 51°11.426 2°46.144 -999 3.274136 32.662049 23.624358
2006-03-28 07:24:44 51°11.417 2°46.117 -999 3.275585 32.675363 24.096289
2006-03-28 07:24:48 51°11.409 2°46.097 -999 3.276826 32.691805 24.433383
2006-03-28 07:24:54 51°11.397 2°46.066 -999 3.276826 32.691805 24.433383
2006-03-28 07:24:59 51°11.387 2°46.04 -999 3.277344 32.702046 24.669349
2006-03-28 07:25:04 51°11.377 2°46.015 -999 3.277655 32.711807 24.770477
2006-03-28 07:25:08 51°11.37 2°45.994 -999 3.277551 32.716992 24.905315
2006-03-28 07:25:14 51°11.358 2°45.963 -999 3.277448 32.723988 25.006443
2006-03-28 07:25:18 51°11.352 2°45.941 -999 3.277034 32.725741 25.073862
2006-03-28 07:25:24 51°11.342 2°45.909 -999 3.276516 32.728159 25.107571
2006-03-28 07:25:28 51°11.335 2°45.887 -999 3.276516 32.728159 25.107571
2006-03-28 07:25:34 51°11.327 2°45.854 -999 3.275999 32.727862 25.141281
2006-03-28 07:25:39 51°11.319 2°45.826 -999 3.275482 32.727565 25.17499
2006-03-28 07:25:44 51°11.312 2°45.798 -999 3.274964 32.725456 25.242409
2006-03-28 07:25:49 51°11.304 2°45.77 -999 3.274654 32.727452 25.410956
2006-03-28 07:25:54 51°11.297 2°45.742 -999 3.274654 32.727452 25.410956
2006-03-28 07:25:58 51°11.291 2°45.72 -999 3.27455 32.72993 25.680631
2006-03-28 07:26:03 51°11.284 2°45.693 -999 3.274757 32.734036 25.984016
2006-03-28 07:26:08 51°11.276 2°45.665 -999 3.275275 32.73977 26.219982
2006-03-28 07:26:14 51°11.267 2°45.631 -999 3.275896 32.743024 26.422238
2006-03-28 07:26:19 51°11.259 2°45.604 -999 3.27662 32.746518 26.590785
2006-03-28 07:26:24 51°11.251 2°45.577 -999 3.27662 32.746518 26.590785
2006-03-28 07:26:28 51°11.244 2°45.554 -999 3.277551 32.75321 26.624494
2006-03-28 07:26:34 51°11.235 2°45.522 -999 3.278483 32.758995 26.624494
2006-03-28 07:26:38 51°11.228 2°45.5 -999 3.279104 32.761341 26.557076
2006-03-28 07:26:44 51°11.219 2°45.467 -999 3.280139 32.76827 26.388529
2006-03-28 07:26:48 51°11.213 2°45.446 -999 3.28107 32.773145 26.253691
2006-03-28 07:26:54 51°11.203 2°45.412 -999 3.281794 32.777541 26.051435
2006-03-28 07:26:59 51°11.196 2°45.384 -999 3.281794 32.777541 26.051435
2006-03-28 07:27:04 51°11.189 2°45.357 -999 3.282519 32.779216 25.882888
2006-03-28 07:27:08 51°11.183 2°45.335 -999 3.283347 32.782944 25.714341
2006-03-28 07:27:14 51°11.174 2°45.301 -999 3.284278 32.787815 25.579503
2006-03-28 07:27:19 51°11.167 2°45.273 -999 3.285209 32.793592 25.444665
2006-03-28 07:27:24 51°11.16 2°45.245 -999 3.28583 32.796839 25.377247
2006-03-28 07:27:28 51°11.154 2°45.223 -999 3.28583 32.796839 25.377247
2006-03-28 07:27:34 51°11.145 2°45.191 -999 3.286451 32.800085 25.309828
2006-03-28 07:27:39 51°11.137 2°45.163 -999 3.287072 32.802424 25.2087
2006-03-28 07:27:44 51°11.129 2°45.135 -999 3.28759 32.806336 25.107571
2006-03-28 07:27:48 51°11.123 2°45.114 -999 3.288107 32.810249 25.006443
2006-03-28 07:27:54 51°11.114 2°45.08 -999 3.288107 32.810249 25.006443
2006-03-28 07:27:58 51°11.108 2°45.058 -999 3.288521 32.813922 24.939024
2006-03-28 07:28:04 51°11.099 2°45.025 -999 3.288935 32.816689 24.905315
2006-03-28 07:28:08 51°11.093 2°45.002 -999 3.289349 32.819455 24.837896
2006-03-28 07:28:14 51°11.085 2°44.969 -999 3.289763 32.821315 24.804187
2006-03-28 07:28:18 51°11.079 2°44.947 -999 3.290073 32.822937 24.703059
2006-03-28 07:28:23 51°11.072 2°44.919 -999 3.290073 32.822937 24.703059
2006-03-28 07:28:28 51°11.064 2°44.891 -999 3.290487 32.826609 24.60193
2006-03-28 07:28:34 51°11.055 2°44.858 -999 3.290694 32.827992 24.467093
2006-03-28 07:28:39 51°11.048 2°44.83 -999 3.290694 32.826179 24.332255
2006-03-28 07:28:44 51°11.04 2°44.802 -999 3.290798 32.827324 24.163708
2006-03-28 07:28:48 51°11.034 2°44.781 -999 3.290694 32.826179 24.06258
2006-03-28 07:28:54 51°11.025 2°44.748 -999 3.290694 32.826179 23.995161
2006-03-28 07:28:59 51°11.017 2°44.721 -999 3.290694 32.826179 23.995161
2006-03-28 07:29:04 51°11.009 2°44.693 -999 3.290591 32.825035 23.927742
2006-03-28 07:29:08 51°11.002 2°44.671 -999 3.290591 32.825941 23.826614
2006-03-28 07:29:14 51°10.993 2°44.638 -999 3.290591 32.825941 23.759195
2006-03-28 07:29:19 51°10.985 2°44.61 -999 3.290487 32.825703 23.725486
2006-03-28 07:29:24 51°10.978 2°44.583 -999 3.290487 32.825703 23.725486
2006-03-28 07:29:28 51°10.972 2°44.56 -999 3.290487 32.826609 23.725486
2006-03-28 07:29:34 51°10.963 2°44.527 -999 3.290591 32.826848 23.792905
2006-03-28 07:29:39 51°10.956 2°44.499 -999 3.290694 32.829805 23.894033
2006-03-28 07:29:44 51°10.949 2°44.471 -999 3.290798 32.83095 23.995161
2006-03-28 07:29:49 51°10.941 2°44.443 -999 3.290901 32.833908 24.06258
2006-03-28 07:29:54 51°10.934 2°44.415 -999 3.290901 32.833908 24.06258
2006-03-28 07:29:59 51°10.926 2°44.388 -999 3.290901 32.835722 24.06258
2006-03-28 07:30:04 51°10.919 2°44.36 -999 3.291005 32.838681 24.028871
2006-03-28 07:30:08 51°10.913 2°44.337 -999 3.291005 32.841402 23.961452
2006-03-28 07:30:14 51°10.904 2°44.304 -999 3.290902 32.842979 23.894033
2006-03-28 07:30:18 51°10.898 2°44.281 -999 3.290798 32.844555 23.792905
2006-03-28 07:30:24 51°10.888 2°44.248 -999 3.290798 32.844555 23.792905
2006-03-28 07:30:29 51°10.88 2°44.221 -999 3.290488 32.844749 23.691777
2006-03-28 07:30:34 51°10.872 2°44.193 -999 3.290177 32.844036 23.590648
2006-03-28 07:30:38 51°10.866 2°44.171 -999 3.289867 32.845138 23.725486
2006-03-28 07:30:44 51°10.857 2°44.137 -999 3.289556 32.844424 24.129999
2006-03-28 07:30:48 51°10.85 2°44.115 -999 3.289453 32.847818 24.63564
2006-03-28 07:30:54 51°10.842 2°44.081 -999 3.289453 32.847818 24.63564
2006-03-28 07:30:58 51°10.836 2°44.058 -999 3.289349 32.850305 24.972734
2006-03-28 07:31:03 51°10.829 2°44.03 -999 3.289246 32.852792 25.006443
2006-03-28 07:31:08 51°10.822 2°44.001 -999 3.289039 32.853225 25.006443
2006-03-28 07:31:14 51°10.814 2°43.968 -999 3.288832 32.85275 24.905315
2006-03-28 07:31:19 51°10.807 2°43.939 -999 3.288625 32.851366 24.804187
2006-03-28 07:31:24 51°10.8 2°43.911 -999 3.288625 32.851366 24.804187
2006-03-28 07:31:28 51°10.794 2°43.889 -999 3.288625 32.853183 24.669349
2006-03-28 07:31:34 51°10.785 2°43.855 -999 3.288522 32.853854 24.568221
2006-03-28 07:31:39 51°10.778 2°43.827 -999 3.288315 32.853379 24.534512
2006-03-28 07:31:44 51°10.77 2°43.799 -999 3.288315 32.855196 24.736768
2006-03-28 07:31:48 51°10.764 2°43.776 -999 3.288522 32.857489 25.073862
2006-03-28 07:31:54 51°10.755 2°43.744 -999 3.288522 32.857489 25.073862
2006-03-28 07:31:59 51°10.748 2°43.716 -999 3.288936 32.859348 25.410956
2006-03-28 07:32:04 51°10.74 2°43.688 -999 3.289453 32.862353 25.545794
2006-03-28 07:32:08 51°10.734 2°43.665 -999 3.290074 32.863778 25.613212
2006-03-28 07:32:14 51°10.726 2°43.632 -999 3.290902 32.866586 25.781759
2006-03-28 07:32:18 51°10.72 2°43.61 -999 3.291626 32.869156 25.882888
2006-03-28 07:32:24 51°10.712 2°43.576 -999 3.292351 32.870816 26.118853
2006-03-28 07:32:28 51°10.707 2°43.554 -999 3.292351 32.870816 26.118853
2006-03-28 07:32:34 51°10.698 2°43.52 -999 3.292868 32.872911 26.422238
2006-03-28 07:32:39 51°10.691 2°43.493 -999 3.293489 32.877059 26.624494
2006-03-28 07:32:44 51°10.683 2°43.465 -999 3.294006 32.880061 26.793042
2006-03-28 07:32:49 51°10.676 2°43.438 -999 3.294524 32.88488 27.096426
2006-03-28 07:32:54 51°10.668 2°43.41 -999 3.294524 32.88488 27.096426
2006-03-28 07:32:59 51°10.66 2°43.383 -999 3.294834 32.887407 27.43352
2006-03-28 07:33:04 51°10.651 2°43.356 -999 3.295352 32.894952 27.669486
2006-03-28 07:33:09 51°10.643 2°43.329 -999 3.295559 32.899061 27.736905
2006-03-28 07:33:14 51°10.635 2°43.303 -999 3.295766 32.900443 27.703195
2006-03-28 07:33:18 51°10.628 2°43.281 -999 3.295869 32.901589 27.602067
2006-03-28 07:33:24 51°10.618 2°43.248 -999 3.295869 32.901589 27.602067
2006-03-28 07:33:28 51°10.613 2°43.226 -999 3.296076 32.904789 27.568358
2006-03-28 07:33:34 51°10.604 2°43.193 -999 3.296283 32.90708 27.43352
2006-03-28 07:33:39 51°10.598 2°43.164 -999 3.296387 32.907317 27.264973
2006-03-28 07:33:44 51°10.591 2°43.136 -999 3.296594 32.907789 27.062717
2006-03-28 07:33:48 51°10.587 2°43.114 -999 3.296801 32.907353 26.927879
2006-03-28 07:33:54 51°10.579 2°43.08 -999 3.296801 32.907353 26.927879
2006-03-28 07:33:59 51°10.574 2°43.051 -999 3.297111 32.906245 26.826751
2006-03-28 07:34:04 51°10.568 2°43.023 -999 3.297525 32.911735 26.691913
2006-03-28 07:34:08 51°10.563 2°43 -999 3.297732 32.913117 26.725623
2006-03-28 07:34:12 51°10.558 2°42.978 -999 3.297939 32.916316 26.725623
2006-03-28 07:34:19 51°10.549 2°42.938 -999 3.29825 32.918843 26.759332
2006-03-28 07:34:24 51°10.543 2°42.909 -999 3.298457 32.919316 26.826751
2006-03-28 07:34:28 51°10.538 2°42.887 -999 3.298457 32.919316 26.826751
2006-03-28 07:34:34 51°10.53 2°42.853 -999 3.298767 32.922752 26.86046
2006-03-28 07:34:38 51°10.524 2°42.831 -999 3.298974 32.924133 26.86046
2006-03-28 07:34:43 51°10.516 2°42.803 -999 3.299078 32.926188 26.793042
2006-03-28 07:34:48 51°10.509 2°42.776 -999 3.299181 32.928243 26.658204
2006-03-28 07:34:54 51°10.5 2°42.742 -999 3.299181 32.928243 26.658204
2006-03-28 07:34:59 51°10.493 2°42.715 -999 3.299388 32.931443 26.523366
2006-03-28 07:35:04 51°10.485 2°42.687 -999 3.299492 32.930769 26.388529
2006-03-28 07:35:08 51°10.479 2°42.665 -999 3.299492 32.92986 26.354819
2006-03-28 07:35:14 51°10.471 2°42.632 -999 3.299699 32.93215 26.2874
2006-03-28 07:35:19 51°10.464 2°42.603 -999 3.299699 32.931241 26.219982
2006-03-28 07:35:24 51°10.458 2°42.575 -999 3.299699 32.931241 26.219982
2006-03-28 07:35:28 51°10.453 2°42.552 -999 3.299699 32.931241 26.118853
2006-03-28 07:35:34 51°10.446 2°42.518 -999 3.299699 32.93215 26.017725
2006-03-28 07:35:38 51°10.441 2°42.495 -999 3.299595 32.931915 25.916597
2006-03-28 07:35:44 51°10.434 2°42.461 -999 3.299595 32.932824 25.815469
2006-03-28 07:35:48 51°10.429 2°42.438 -999 3.299492 32.932588 25.646922
2006-03-28 07:35:54 51°10.422 2°42.404 -999 3.299388 32.931443 25.478375
2006-03-28 07:35:59 51°10.415 2°42.376 -999 3.299388 32.931443 25.478375
2006-03-28 07:36:04 51°10.409 2°42.347 -999 3.299285 32.930297 25.343537
2006-03-28 07:36:08 51°10.404 2°42.325 -999 3.299285 32.931207 25.2087
2006-03-28 07:36:14 51°10.395 2°42.291 -999 3.299181 32.930971 25.17499
2006-03-28 07:36:19 51°10.389 2°42.263 -999 3.299078 32.930735 25.073862
2006-03-28 07:36:24 51°10.382 2°42.235 -999 3.299078 32.930735 25.073862
2006-03-28 07:36:28 51°10.376 2°42.212 -999 3.298974 32.932319 24.972734
2006-03-28 07:36:34 51°10.368 2°42.178 -999 3.298871 32.932083 24.905315
2006-03-28 07:36:38 51°10.362 2°42.156 -999 3.298767 32.932757 24.770477
2006-03-28 07:36:44 51°10.354 2°42.123 -999 3.298871 32.933903 24.669349
2006-03-28 07:36:49 51°10.347 2°42.095 -999 3.298767 32.934577 24.60193
2006-03-28 07:36:54 51°10.341 2°42.066 -999 3.298767 32.934577 24.60193
2006-03-28 07:36:58 51°10.336 2°42.044 -999 3.298457 32.92932 24.568221
2006-03-28 07:37:04 51°10.329 2°42.009 -999 3.295662 32.89748 24.568221
2006-03-28 07:37:08 51°10.324 2°41.987 -999 3.298767 32.931847 24.568221
2006-03-28 07:37:14 51°10.316 2°41.952 -999 3.297629 32.919245 24.63564
2006-03-28 07:37:18 51°10.312 2°41.93 -999 3.29825 32.927029 24.703059
2006-03-28 07:37:24 51°10.304 2°41.896 -999 3.29825 32.927029 24.703059
2006-03-28 07:37:28 51°10.299 2°41.874 -999 3.296904 32.913954 24.837896
2006-03-28 07:37:34 51°10.291 2°41.84 -999 3.297525 32.922647 24.972734
2006-03-28 07:37:38 51°10.286 2°41.817 -999 3.298043 32.931106 25.141281
2006-03-28 07:37:44 51°10.278 2°41.784 -999 3.298457 32.93751 25.242409
2006-03-28 07:37:48 51°10.272 2°41.761 -999 3.298146 32.936803 25.309828
2006-03-28 07:37:54 51°10.264 2°41.728 -999 3.297836 32.935185 25.276118
2006-03-28 07:37:59 51°10.257 2°41.7 -999 3.297836 32.935185 25.276118
2006-03-28 07:38:04 51°10.25 2°41.672 -999 3.297525 32.931747 25.17499
2006-03-28 07:38:09 51°10.242 2°41.645 -999 3.295249 32.906535 25.040153
2006-03-28 07:38:14 51°10.235 2°41.617 -999 3.2938 32.891401 24.905315
2006-03-28 07:38:19 51°10.228 2°41.589 -999 3.298146 32.939534 24.837896
2006-03-28 07:38:24 51°10.221 2°41.561 -999 3.298146 32.939534 24.837896
2006-03-28 07:38:28 51°10.215 2°41.539 -999 3.295145 32.906298 24.770477
2006-03-28 07:38:34 51°10.207 2°41.505 -999 3.292351 32.87445 24.703059
2006-03-28 07:38:39 51°10.201 2°41.476 -999 3.295663 32.911119 24.669349
2006-03-28 07:38:44 51°10.194 2°41.448 -999 3.294524 32.897604 24.63564
2006-03-28 07:38:48 51°10.19 2°41.426 -999 3.294317 32.894403 24.63564
2006-03-28 07:38:54 51°10.182 2°41.391 -999 3.294317 32.894403 24.63564
2006-03-28 07:38:59 51°10.176 2°41.363 -999 3.294628 32.897841 24.669349
2006-03-28 07:39:04 51°10.17 2°41.334 -999 3.294317 32.894403 24.669349
2006-03-28 07:39:08 51°10.166 2°41.312 -999 3.294214 32.895076 24.703059
2006-03-28 07:39:14 51°10.158 2°41.277 -999 3.295352 32.9095 24.736768
2006-03-28 07:39:18 51°10.154 2°41.254 -999 3.294835 32.905589 24.770477
2006-03-28 07:39:24 51°10.146 2°41.22 -999 3.293282 32.892036 24.804187
2006-03-28 07:39:28 51°10.141 2°41.197 -999 3.293282 32.892036 24.804187
2006-03-28 07:39:34 51°10.133 2°41.163 -999 3.294835 32.910138 24.804187
2006-03-28 07:39:39 51°10.127 2°41.136 -999 3.294938 32.910374 24.770477
2006-03-28 07:39:44 51°10.121 2°41.107 -999 3.293282 32.892036 24.703059
2006-03-28 07:39:48 51°10.115 2°41.085 -999 3.29411 32.901205 24.63564
2006-03-28 07:39:54 51°10.107 2°41.051 -999 3.294007 32.900059 24.63564
2006-03-28 07:39:58 51°10.101 2°41.029 -999 3.294007 32.900059 24.63564
2006-03-28 07:40:04 51°10.093 2°40.995 -999 3.293489 32.896147 24.703059
2006-03-28 07:40:08 51°10.088 2°40.973 -999 3.293489 32.897966 24.804187
2006-03-28 07:40:14 51°10.08 2°40.939 -999 3.292972 32.892235 24.905315
2006-03-28 07:40:19 51°10.074 2°40.91 -999 3.294938 32.914924 25.040153
2006-03-28 07:40:24 51°10.068 2°40.882 -999 3.294938 32.914924 25.040153
2006-03-28 07:40:28 51°10.063 2°40.86 -999 3.2938 32.903224 25.073862
2006-03-28 07:40:34 51°10.056 2°40.825 -999 3.295042 32.916981 25.141281
2006-03-28 07:40:39 51°10.05 2°40.797 -999 3.294524 32.911249 25.242409
2006-03-28 07:40:44 51°10.044 2°40.768 -999 3.295352 32.92042 25.276118
2006-03-28 07:40:48 51°10.039 2°40.746 -999 3.294835 32.913778 25.276118
2006-03-28 07:40:54 51°10.032 2°40.712 -999 3.294835 32.913778 25.276118
2006-03-28 07:40:59 51°10.025 2°40.685 -999 3.296077 32.925713 25.276118
2006-03-28 07:41:04 51°10.019 2°40.656 -999 3.295663 32.921128 25.242409
2006-03-28 07:41:08 51°10.014 2°40.634 -999 3.295973 32.923657 25.2087
2006-03-28 07:41:14 51°10.006 2°40.601 -999 3.296801 32.931917 25.2087
2006-03-28 07:41:18 51°10.001 2°40.579 -999 3.298871 32.953933 25.141281
2006-03-28 07:41:24 51°9.993 2°40.545 -999 3.298561 32.949583 25.107571
2006-03-28 07:41:28 51°9.988 2°40.522 -999 3.298561 32.949583 25.107571
2006-03-28 07:41:34 51°9.98 2°40.488 -999 3.300113 32.964045 25.040153
2006-03-28 07:41:39 51°9.974 2°40.46 -999 3.299285 32.953053 24.939024
2006-03-28 07:41:43 51°9.969 2°40.438 -999 3.301044 32.968895 24.871606
2006-03-28 07:41:48 51°9.962 2°40.41 -999 3.301251 32.968453 24.770477
2006-03-28 07:41:54 51°9.954 2°40.377 -999 3.301251 32.968453 24.770477
2006-03-28 07:41:58 51°9.949 2°40.354 -999 3.300837 32.962047 24.703059
2006-03-28 07:42:04 51°9.942 2°40.321 -999 3.303321 32.987731 24.568221
2006-03-28 07:42:08 51°9.937 2°40.298 -999 3.30477 33.001953 24.467093
2006-03-28 07:42:14 51°9.929 2°40.264 -999 3.305184 33.006537 24.332255
2006-03-28 07:42:19 51°9.923 2°40.236 -999 3.30684 33.023052 24.231127
2006-03-28 07:42:24 51°9.917 2°40.208 -999 3.30684 33.023052 24.231127
2006-03-28 07:42:28 51°9.911 2°40.185 -999 3.306323 33.015496 24.06258
2006-03-28 07:42:34 51°9.904 2°40.152 -999 3.307461 33.026279 23.961452
2006-03-28 07:42:39 51°9.897 2°40.125 -999 3.309635 33.049435 23.792905
2006-03-28 07:42:44 51°9.891 2°40.097 -999 3.310049 33.05402 23.691777
2006-03-28 07:42:48 51°9.885 2°40.074 -999 3.308496 33.036827 23.590648
2006-03-28 07:42:54 51°9.878 2°40.04 -999 3.311912 33.074652 23.48952
2006-03-28 07:42:59 51°9.871 2°40.012 -999 3.311912 33.074652 23.48952
2006-03-28 07:43:04 51°9.865 2°39.984 -999 3.312015 33.076712 23.354683
2006-03-28 07:43:08 51°9.86 2°39.961 -999 3.312326 33.080151 23.253554
2006-03-28 07:43:14 51°9.853 2°39.927 -999 3.313982 33.098494 23.186136
2006-03-28 07:43:18 51°9.848 2°39.905 -999 3.313154 33.089322 23.118717
2006-03-28 07:43:24 51°9.841 2°39.871 -999 3.315327 33.113398 23.051298
2006-03-28 07:43:29 51°9.835 2°39.843 -999 3.315327 33.113398 23.051298
2006-03-28 07:43:34 51°9.828 2°39.814 -999 3.315534 33.114777 22.983879
2006-03-28 07:43:38 51°9.823 2°39.792 -999 3.315017 33.108129 22.91646
2006-03-28 07:43:44 51°9.815 2°39.759 -999 3.314189 33.099872 22.882751
2006-03-28 07:43:48 51°9.81 2°39.736 -999 3.316569 33.126242 22.882751
2006-03-28 07:43:54 51°9.802 2°39.702 -999 3.316569 33.126242 22.882751
2006-03-28 07:43:59 51°9.795 2°39.674 -999 3.318329 33.144819 22.815332
2006-03-28 07:44:04 51°9.789 2°39.646 -999 3.318846 33.150552 22.781623
2006-03-28 07:44:08 51°9.783 2°39.624 -999 3.319364 33.156285 22.781623
2006-03-28 07:44:14 51°9.776 2°39.59 -999 3.320399 33.167753 22.714204
2006-03-28 07:44:18 51°9.77 2°39.567 -999 3.321123 33.176697 22.680494
2006-03-28 07:44:24 51°9.763 2°39.534 -999 3.321123 33.176697 22.680494
2006-03-28 07:44:28 51°9.758 2°39.511 -999 3.318329 33.145734 22.680494
2006-03-28 07:44:34 51°9.751 2°39.477 -999 3.310877 33.062276 22.646785
2006-03-28 07:44:39 51°9.745 2°39.448 -999 3.322469 33.190689 22.613076
2006-03-28 07:44:44 51°9.739 2°39.42 -999 3.322572 33.190919 22.613076
2006-03-28 07:44:48 51°9.734 2°39.398 -999 3.322779 33.191378 22.613076
2006-03-28 07:44:54 51°9.726 2°39.364 -999 3.324539 33.20904 22.613076
2006-03-28 07:44:59 51°9.719 2°39.336 -999 3.324539 33.20904 22.613076
2006-03-28 07:45:04 51°9.713 2°39.309 -999 3.323814 33.201929 22.579366
2006-03-28 07:45:08 51°9.707 2°39.286 -999 3.325574 33.222344 22.613076
2006-03-28 07:45:13 51°9.701 2°39.258 -999 3.327333 33.242761 22.613076
2006-03-28 07:45:19 51°9.693 2°39.224 -999 3.327954 33.250562 22.613076
2006-03-28 07:45:24 51°9.686 2°39.197 -999 3.327954 33.250562 22.613076
2006-03-28 07:45:28 51°9.681 2°39.174 -999 3.327644 33.248039 22.613076
2006-03-28 07:45:34 51°9.674 2°39.14 -999 3.3293 33.266394 22.646785
2006-03-28 07:45:39 51°9.668 2°39.112 -999 3.328989 33.261115 22.680494
2006-03-28 07:45:44 51°9.662 2°39.083 -999 3.32961 33.267079 22.747913
2006-03-28 07:45:48 51°9.657 2°39.061 -999 3.330438 33.277176 22.815332
2006-03-28 07:45:54 51°9.649 2°39.027 -999 3.330438 33.277176 22.815332
2006-03-28 07:45:58 51°9.644 2°39.005 -999 3.331784 33.292091 22.91646
2006-03-28 07:46:04 51°9.637 2°38.971 -999 3.331991 33.294385 22.983879
2006-03-28 07:46:08 51°9.632 2°38.949 -999 3.332509 33.302882 23.051298
2006-03-28 07:46:14 51°9.625 2°38.915 -999 3.332302 33.301507 23.085007
2006-03-28 07:46:19 51°9.618 2°38.887 -999 3.326091 33.234505 23.152426
2006-03-28 07:46:24 51°9.612 2°38.86 -999 3.326091 33.234505 23.152426
2006-03-28 07:46:28 51°9.607 2°38.837 -999 3.328265 33.258598 23.219845
2006-03-28 07:46:34 51°9.599 2°38.805 -999 3.328989 33.268468 23.320973
2006-03-28 07:46:39 51°9.593 2°38.776 -999 3.330025 33.280862 23.354683
2006-03-28 07:46:44 51°9.587 2°38.749 -999 3.327644 33.25447 23.455811
2006-03-28 07:46:49 51°9.581 2°38.721 -999 3.328679 33.266864 23.48952
2006-03-28 07:46:54 51°9.574 2°38.694 -999 3.330749 33.290734 23.48952
2006-03-28 07:46:59 51°9.569 2°38.666 -999 3.330749 33.290734 23.48952
2006-03-28 07:47:04 51°9.562 2°38.638 -999 3.329921 33.281554 23.48952
2006-03-28 07:47:08 51°9.557 2°38.616 -999 3.331888 33.304279 23.455811
2006-03-28 07:47:14 51°9.55 2°38.582 -999 3.328679 33.271461 23.354683
2006-03-28 07:47:19 51°9.544 2°38.555 -999 3.334372 33.335511 23.287264
2006-03-28 07:47:24 51°9.537 2°38.527 -999 3.334372 33.335511 23.287264
2006-03-28 07:47:28 51°9.532 2°38.505 -999 3.334993 33.344242 23.152426
2006-03-28 07:47:34 51°9.524 2°38.472 -999 3.329404 33.284094 23.085007
2006-03-28 07:47:39 51°9.518 2°38.444 -999 3.335924 33.358263 23.017589
2006-03-28 07:47:44 51°9.512 2°38.416 -999 3.336235 33.36263 22.91646
2006-03-28 07:47:48 51°9.507 2°38.394 -999 3.336235 33.364475 22.781623
2006-03-28 07:47:54 51°9.499 2°38.36 -999 3.336235 33.364475 22.781623
2006-03-28 07:47:59 51°9.493 2°38.334 -999 3.335821 33.361726 22.680494
2006-03-28 07:48:04 51°9.486 2°38.306 -999 3.336649 33.371837 22.511947
2006-03-28 07:48:08 51°9.481 2°38.283 -999 3.336753 33.372985 22.410819
2006-03-28 07:48:14 51°9.473 2°38.25 -999 3.335303 33.355062 22.309691
2006-03-28 07:48:18 51°9.469 2°38.228 -999 3.337063 33.373662 22.208563
2006-03-28 07:48:24 51°9.461 2°38.194 -999 3.335924 33.360108 22.107435
2006-03-28 07:48:28 51°9.456 2°38.172 -999 3.335924 33.360108 22.107435
2006-03-28 07:48:34 51°9.449 2°38.138 -999 3.334475 33.34311 22.040016
2006-03-28 07:48:39 51°9.443 2°38.11 -999 3.336752 33.366527 22.006306
2006-03-28 07:48:44 51°9.437 2°38.082 -999 3.336649 33.363534 21.972597
2006-03-28 07:48:48 51°9.432 2°38.06 -999 3.338512 33.380512 21.938888
2006-03-28 07:48:54 51°9.425 2°38.027 -999 3.338512 33.372211 21.871469
2006-03-28 07:48:59 51°9.418 2°37.999 -999 3.338512 33.372211 21.871469
2006-03-28 07:49:04 51°9.412 2°37.971 -999 3.340892 33.388465 21.905178
2006-03-28 07:49:08 51°9.407 2°37.949 -999 3.340478 33.371891 21.871469
2006-03-28 07:49:14 51°9.399 2°37.916 -999 3.34141 33.370238 21.871469
2006-03-28 07:49:18 51°9.394 2°37.894 -999 3.336855 33.30875 21.905178
2006-03-28 07:49:24 51°9.387 2°37.861 -999 3.336855 33.30875 21.905178
2006-03-28 07:49:28 51°9.382 2°37.838 -999 3.340064 33.33325 21.938888
2006-03-28 07:49:34 51°9.374 2°37.805 -999 3.342755 33.353849 21.938888
2006-03-28 07:49:39 51°9.368 2°37.778 -999 3.342444 33.343976 21.905178
2006-03-28 07:49:44 51°9.361 2°37.749 -999 3.342548 33.338688 21.905178
2006-03-28 07:49:48 51°9.356 2°37.727 -999 3.341409 33.320579 21.871469
2006-03-28 07:49:54 51°9.349 2°37.694 -999 3.342341 33.326294 21.871469
2006-03-28 07:49:59 51°9.343 2°37.667 -999 3.342341 33.326294 21.871469
2006-03-28 07:50:04 51°9.337 2°37.638 -999 3.342651 33.325138 21.871469
2006-03-28 07:50:08 51°9.332 2°37.616 -999 3.342341 33.317115 21.837759
2006-03-28 07:50:14 51°9.325 2°37.583 -999 3.342858 33.31825 21.837759
2006-03-28 07:50:18 51°9.32 2°37.56 -999 3.342754 33.314353 21.837759
2006-03-28 07:50:24 51°9.312 2°37.526 -999 3.342858 33.311828 21.837759
2006-03-28 07:50:29 51°9.306 2°37.499 -999 3.342858 33.311828 21.837759
2006-03-28 07:50:34 51°9.3 2°37.471 -999 3.342858 33.309077 21.837759
2006-03-28 07:50:38 51°9.295 2°37.448 -999 3.342651 33.304038 21.837759
2006-03-28 07:50:44 51°9.288 2°37.415 -999 3.343065 33.30678 21.837759
2006-03-28 07:50:48 51°9.283 2°37.392 -999 3.34234 33.297855 21.837759
2006-03-28 07:50:54 51°9.276 2°37.359 -999 3.34234 33.297855 21.837759
2006-03-28 07:50:58 51°9.271 2°37.336 -999 3.339856 33.2704 21.837759
2006-03-28 07:51:03 51°9.265 2°37.308 -999 3.343375 33.31113 21.871469
2006-03-28 07:51:08 51°9.259 2°37.28 -999 3.344307 33.325097 21.905178
2006-03-28 07:51:14 51°9.251 2°37.246 -999 3.344307 33.330603 21.938888
2006-03-28 07:51:19 51°9.245 2°37.219 -999 3.346584 33.362215 22.006306
2006-03-28 07:51:24 51°9.239 2°37.191 -999 3.346584 33.362215 22.006306
2006-03-28 07:51:28 51°9.234 2°37.169 -999 3.345135 33.351699 22.006306
2006-03-28 07:51:34 51°9.226 2°37.135 -999 3.342962 33.33592 22.006306
2006-03-28 07:51:39 51°9.22 2°37.107 -999 3.344721 33.360904 22.006306
2006-03-28 07:51:44 51°9.213 2°37.079 -999 3.342134 33.338701 22.006306
2006-03-28 07:51:48 51°9.208 2°37.057 -999 3.347723 33.405172 22.040016
2006-03-28 07:51:54 51°9.201 2°37.024 -999 3.347309 33.404272 22.040016
2006-03-28 07:51:58 51°9.196 2°37.001 -999 3.347309 33.404272 22.040016
2006-03-28 07:52:04 51°9.189 2°36.968 -999 3.345343 33.386179 22.040016
2006-03-28 07:52:08 51°9.184 2°36.945 -999 3.34762 33.415081 22.040016
2006-03-28 07:52:14 51°9.177 2°36.911 -999 3.348655 33.430234 22.040016
2006-03-28 07:52:19 51°9.172 2°36.884 -999 3.347206 33.419713 22.073725
2006-03-28 07:52:24 51°9.165 2°36.855 -999 3.348034 33.433499 22.107435
2006-03-28 07:52:28 51°9.161 2°36.833 -999 3.348034 33.433499 22.107435
2006-03-28 07:52:34 51°9.153 2°36.799 -999 3.348345 33.444322 22.141144
2006-03-28 07:52:39 51°9.147 2°36.771 -999 3.350001 33.47284 22.208563
2006-03-28 07:52:44 51°9.141 2°36.743 -999 3.34762 33.455683 22.275982
2006-03-28 07:52:48 51°9.135 2°36.721 -999 3.349277 33.485146 22.309691
2006-03-28 07:52:54 51°9.128 2°36.688 -999 3.349277 33.485146 22.309691
2006-03-28 07:52:58 51°9.123 2°36.665 -999 3.350312 33.504034 22.37711
2006-03-28 07:53:04 51°9.115 2°36.632 -999 3.347414 33.480202 22.410819
2006-03-28 07:53:08 51°9.11 2°36.609 -999 3.349173 33.507141 22.444529
2006-03-28 07:53:14 51°9.102 2°36.576 -999 3.348449 33.505582 22.478238
2006-03-28 07:53:19 51°9.096 2°36.548 -999 3.347207 33.496423 22.511947
2006-03-28 07:53:24 51°9.09 2°36.519 -999 3.347207 33.496423 22.511947
2006-03-28 07:53:28 51°9.085 2°36.497 -999 3.34907 33.518966 22.511947
2006-03-28 07:53:34 51°9.078 2°36.462 -999 3.347414 33.504282 22.545657
2006-03-28 07:53:39 51°9.072 2°36.434 -999 3.349174 33.526607 22.511947
2006-03-28 07:53:44 51°9.066 2°36.405 -999 3.34907 33.52824 22.545657
2006-03-28 07:53:48 51°9.062 2°36.383 -999 3.348863 33.527796 22.545657
2006-03-28 07:53:54 51°9.055 2°36.348 -999 3.348656 33.527351 22.511947
2006-03-28 07:53:59 51°9.048 2°36.32 -999 3.348656 33.527351 22.511947
2006-03-28 07:54:04 51°9.042 2°36.291 -999 3.347103 33.51103 22.511947
2006-03-28 07:54:08 51°9.037 2°36.267 -999 3.344619 33.484361 22.478238
2006-03-28 07:54:14 51°9.03 2°36.233 -999 3.346482 33.505986 22.478238
2006-03-28 07:54:19 51°9.023 2°36.205 -999 3.347932 33.523013 22.478238
2006-03-28 07:54:24 51°9.017 2°36.177 -999 3.345861 33.502795 22.511947
2006-03-28 07:54:28 51°9.012 2°36.154 -999 3.345861 33.502795 22.511947
2006-03-28 07:54:34 51°9.004 2°36.12 -999 3.348035 33.527874 22.613076
2006-03-28 07:54:39 51°8.997 2°36.092 -999 3.345137 33.497526 22.747913
2006-03-28 07:54:44 51°8.991 2°36.064 -999 3.347414 33.524685 22.747913
2006-03-28 07:54:48 51°8.986 2°36.041 -999 3.346793 33.520567 22.747913
2006-03-28 07:54:54 51°8.978 2°36.007 -999 3.346793 33.520567 22.747913
2006-03-28 07:54:58 51°8.973 2°35.984 -999 3.342756 33.476636 22.680494
2006-03-28 07:55:04 51°8.966 2°35.949 -999 3.345137 33.50309 22.680494
2006-03-28 07:55:08 51°8.961 2°35.927 -999 3.342135 33.469735 22.646785
2006-03-28 07:55:14 51°8.953 2°35.893 -999 3.345862 33.512998 22.680494
2006-03-28 07:55:18 51°8.948 2°35.87 -999 3.346586 33.522907 22.747913
2006-03-28 07:55:24 51°8.94 2°35.837 -999 3.343998 33.494147 22.714204
2006-03-28 07:55:28 51°8.934 2°35.814 -999 3.343998 33.494147 22.714204
2006-03-28 07:55:34 51°8.926 2°35.781 -999 3.345344 33.510029 22.747913
2006-03-28 07:55:39 51°8.919 2°35.753 -999 3.344309 33.497598 22.714204
2006-03-28 07:55:44 51°8.911 2°35.725 -999 3.346172 33.519233 22.680494
2006-03-28 07:55:49 51°8.904 2°35.697 -999 3.345241 33.510735 22.714204
2006-03-28 07:55:54 51°8.897 2°35.669 -999 3.345655 33.516265 22.646785
2006-03-28 07:55:59 51°8.889 2°35.642 -999 3.345655 33.516265 22.646785
2006-03-28 07:56:04 51°8.882 2°35.614 -999 3.341204 33.467724 22.613076
2006-03-28 07:56:08 51°8.877 2°35.592 -999 3.343895 33.498562 22.579366
2006-03-28 07:56:14 51°8.868 2°35.558 -999 3.343688 33.496261 22.579366
2006-03-28 07:56:18 51°8.862 2°35.537 -999 3.345758 33.5202 22.579366
2006-03-28 07:56:24 51°8.853 2°35.503 -999 3.345758 33.5202 22.579366
2006-03-28 07:56:28 51°8.848 2°35.482 -999 3.341928 33.479484 22.579366
2006-03-28 07:56:33 51°8.84 2°35.454 -999 3.34493 33.514708 22.579366
2006-03-28 07:56:39 51°8.832 2°35.421 -999 3.341721 33.479965 22.579366
2006-03-28 07:56:44 51°8.824 2°35.393 -999 3.344102 33.50643 22.545657
2006-03-28 07:56:48 51°8.819 2°35.371 -999 3.344309 33.510588 22.545657
2006-03-28 07:56:52 51°8.813 2°35.348 -999 3.344309 33.510588 22.545657
2006-03-28 07:56:59 51°8.803 2°35.31 -999 3.342446 33.490802 22.545657
2006-03-28 07:57:04 51°8.796 2°35.281 -999 3.343895 33.507841 22.511947
2006-03-28 07:57:08 51°8.79 2°35.259 -999 3.343688 33.507396 22.511947
2006-03-28 07:57:14 51°8.782 2°35.226 -999 3.340686 33.47495 22.511947
2006-03-28 07:57:18 51°8.776 2°35.204 -999 3.338616 33.452863 22.478238
2006-03-28 07:57:24 51°8.767 2°35.17 -999 3.341307 33.482782 22.444529
2006-03-28 07:57:28 51°8.762 2°35.148 -999 3.341307 33.482782 22.444529
2006-03-28 07:57:34 51°8.753 2°35.115 -999 3.336339 33.428476 22.410819
2006-03-28 07:57:38 51°8.747 2°35.093 -999 3.337685 33.443434 22.3434
2006-03-28 07:57:44 51°8.738 2°35.059 -999 3.337788 33.445511 22.309691
2006-03-28 07:57:49 51°8.73 2°35.031 -999 3.339444 33.463922 22.275982
2006-03-28 07:57:54 51°8.724 2°35.003 -999 3.337167 33.439533 22.242272
2006-03-28 07:57:59 51°8.716 2°34.976 -999 3.337167 33.439533 22.242272
2006-03-28 07:58:04 51°8.709 2°34.947 -999 3.341411 33.486716 22.242272
2006-03-28 07:58:09 51°8.702 2°34.919 -999 3.336029 33.427802 22.242272
2006-03-28 07:58:14 51°8.695 2°34.891 -999 3.337788 33.447364 22.275982
2006-03-28 07:58:18 51°8.689 2°34.869 -999 3.339134 33.459543 22.3434
2006-03-28 07:58:24 51°8.68 2°34.835 -999 3.339134 33.459543 22.3434
2006-03-28 07:58:28 51°8.674 2°34.814 -999 3.339858 33.468526 22.3434
2006-03-28 07:58:34 51°8.665 2°34.781 -999 3.339341 33.464626 22.37711
2006-03-28 07:58:39 51°8.657 2°34.753 -999 3.340169 33.472905 22.444529
2006-03-28 07:58:44 51°8.65 2°34.725 -999 3.340169 33.472905 22.478238
2006-03-28 07:58:48 51°8.644 2°34.703 -999 3.337167 33.439533 22.478238
2006-03-28 07:58:53 51°8.637 2°34.674 -999 3.337167 33.439533 22.478238
2006-03-28 07:58:59 51°8.628 2°34.641 -999 3.336753 33.435857 22.478238
2006-03-28 07:59:03 51°8.622 2°34.619 -999 3.339858 33.469453 22.478238
2006-03-28 07:59:08 51°8.615 2°34.59 -999 3.339651 33.467151 22.444529
2006-03-28 07:59:14 51°8.607 2°34.557 -999 3.33696 33.437232 22.444529
2006-03-28 07:59:18 51°8.601 2°34.535 -999 3.340893 33.480962 22.410819
2006-03-28 07:59:24 51°8.592 2°34.501 -999 3.342032 33.493622 22.410819
2006-03-28 07:59:29 51°8.585 2°34.473 -999 3.342032 33.493622 22.410819
2006-03-28 07:59:34 51°8.577 2°34.445 -999 3.336546 33.431703 22.3434
2006-03-28 07:59:38 51°8.571 2°34.422 -999 3.339548 33.465073 22.309691
2006-03-28 07:59:44 51°8.562 2°34.389 -999 3.340479 33.475431 22.275982
2006-03-28 07:59:48 51°8.556 2°34.367 -999 3.341411 33.486716 22.275982
2006-03-28 07:59:54 51°8.547 2°34.335 -999 3.341411 33.486716 22.275982
2006-03-28 07:59:58 51°8.541 2°34.312 -999 3.343585 33.510887 22.242272
2006-03-28 08:00:04 51°8.532 2°34.279 -999 3.341204 33.482559 22.208563
2006-03-28 08:00:09 51°8.524 2°34.251 -999 3.343067 33.502347 22.208563
2006-03-28 08:00:14 51°8.517 2°34.223 -999 3.3411 33.478625 22.208563
2006-03-28 08:00:19 51°8.51 2°34.195 -999 3.343274 33.501864 22.208563
2006-03-28 08:00:24 51°8.502 2°34.168 -999 3.343274 33.501864 22.208563
2006-03-28 08:00:28 51°8.497 2°34.145 -999 3.34462 33.514969 22.174853
2006-03-28 08:00:34 51°8.487 2°34.112 -999 3.345137 33.519794 22.208563
2006-03-28 08:00:39 51°8.48 2°34.084 -999 3.340583 33.468236 22.174853
2006-03-28 08:00:44 51°8.472 2°34.057 -999 3.345034 33.516787 22.174853
2006-03-28 08:00:49 51°8.464 2°34.03 -999 3.344309 33.506875 22.174853
2006-03-28 08:00:54 51°8.456 2°34.002 -999 3.344206 33.504797 22.208563
2006-03-28 08:00:59 51°8.447 2°33.975 -999 3.344206 33.504797 22.208563
2006-03-28 08:01:04 51°8.439 2°33.949 -999 3.347311 33.539318 22.174853
2006-03-28 08:01:09 51°8.43 2°33.921 -999 3.345241 33.516303 22.141144
2006-03-28 08:01:14 51°8.422 2°33.895 -999 3.347414 33.540469 22.107435
2006-03-28 08:01:19 51°8.414 2°33.868 -999 3.343895 33.500417 22.073725
2006-03-28 08:01:24 51°8.406 2°33.84 -999 3.343791 33.497411 22.040016
2006-03-28 08:01:28 51°8.399 2°33.818 -999 3.343791 33.497411 22.040016
2006-03-28 08:01:34 51°8.39 2°33.786 -999 3.347104 33.531444 22.040016
2006-03-28 08:01:39 51°8.382 2°33.758 -999 3.345241 33.509807 21.972597
2006-03-28 08:01:44 51°8.374 2°33.732 -999 3.346897 33.526358 21.972597
2006-03-28 08:01:49 51°8.366 2°33.705 -999 3.346897 33.522646 21.938888
2006-03-28 08:01:54 51°8.357 2°33.678 -999 3.346897 33.522646 21.938888
2006-03-28 08:01:58 51°8.35 2°33.657 -999 3.347725 33.53092 21.905178
2006-03-28 08:02:04 51°8.34 2°33.626 -999 3.346172 33.51181 21.871469
2006-03-28 08:02:08 51°8.334 2°33.604 -999 3.34669 33.514778 21.837759
2006-03-28 08:02:14 51°8.323 2°33.573 -999 3.348553 33.533625 21.80405
2006-03-28 08:02:19 51°8.315 2°33.546 -999 3.350933 33.560081 21.80405
2006-03-28 08:02:24 51°8.306 2°33.521 -999 3.350933 33.560081 21.80405
2006-03-28 08:02:28 51°8.298 2°33.5 -999 3.351658 33.566275 21.770341
2006-03-28 08:02:34 51°8.287 2°33.469 -999 3.35083 33.556144 21.736631
2006-03-28 08:02:38 51°8.28 2°33.448 -999 3.352175 33.56924 21.736631
2006-03-28 08:02:44 51°8.269 2°33.417 -999 3.351968 33.56601 21.736631
2006-03-28 08:02:48 51°8.262 2°33.397 -999 3.350002 33.543229 21.702922
2006-03-28 08:02:54 51°8.25 2°33.366 -999 3.351347 33.556323 21.669212
2006-03-28 08:02:59 51°8.241 2°33.34 -999 3.351347 33.556323 21.669212
2006-03-28 08:03:04 51°8.232 2°33.315 -999 3.352693 33.568488 21.669212
2006-03-28 08:03:08 51°8.225 2°33.293 -999 3.354142 33.58366 21.635503
2006-03-28 08:03:14 51°8.214 2°33.263 -999 3.347207 33.503836 21.669212
2006-03-28 08:03:19 51°8.205 2°33.237 -999 3.351968 33.554867 21.669212
2006-03-28 08:03:24 51°8.196 2°33.21 -999 3.353314 33.567958 21.669212
2006-03-28 08:03:28 51°8.189 2°33.189 -999 3.353314 33.567958 21.669212
2006-03-28 08:03:34 51°8.178 2°33.159 -999 3.352382 33.556682 21.669212
2006-03-28 08:03:39 51°8.169 2°33.133 -999 3.354349 33.577599 21.702922
2006-03-28 08:03:44 51°8.16 2°33.108 -999 3.349173 33.519189 21.702922
2006-03-28 08:03:49 51°8.151 2°33.082 -999 3.353417 33.565394 21.702922
2006-03-28 08:03:54 51°8.142 2°33.056 -999 3.353417 33.565394 21.702922
2006-03-28 08:03:58 51°8.135 2°33.036 -999 3.35321 33.562166 21.736631
2006-03-28 08:04:04 51°8.124 2°33.004 -999 3.354038 33.571364 21.770341
2006-03-28 08:04:09 51°8.116 2°32.978 -999 3.353314 33.562388 21.80405
2006-03-28 08:04:14 51°8.109 2°32.951 -999 3.354556 33.577112 21.80405
2006-03-28 08:04:18 51°8.104 2°32.929 -999 3.353003 33.560795 21.837759
2006-03-28 08:04:24 51°8.098 2°32.894 -999 3.353417 33.564466 21.871469
2006-03-28 08:04:28 51°8.095 2°32.871 -999 3.353417 33.564466 21.871469